Flight Track Log - Related Links

Times and Time Zones

All times are in EDT time to prevent confusion due to time zone crossing. See the DAL268 flight status page for this flight to view local times or setup timezone preferences in your user account.

Time Position Orientation Groundspeed Altitude Reporting Facility
EDT Latitude Longitude Course Direction KTS MPH feet Rate Location/Type
Sun 11:28:22 PM 40.6390 -73.7840 123° Southeast 181 208 100  Level FlightAware ADS-B
Sun 11:28:37 PM 40.6310 -73.7720 131° Southeast 181 208 500 1,500 Climbing FlightAware ADS-B
Sun 11:29:02 PM 40.6140 -73.7560 144° Southeast 189 217 1,100 1,091 Climbing FlightAware ADS-B
Sun 11:29:32 PM 40.5920 -73.7330 142° Southeast 217 250 1,500 933 Climbing FlightAware ADS-B
Sun 11:29:47 PM 40.5850 -73.7150 117° Southeast 227 261 1,800 1,200 Climbing FlightAware ADS-B
Sun 11:30:02 PM 40.5830 -73.6920 97° East 237 273 2,100 600 Climbing FlightAware ADS-B
Sun 11:30:27 PM 40.5850 -73.6570 86° East 261 300 2,200 1,080 Climbing FlightAware ADS-B
Sun 11:30:52 PM 40.5850 -73.6170 90° East 259 298 3,000 1,745 Climbing FlightAware ADS-B
Sun 11:31:22 PM 40.5830 -73.5650 93° East 278 320 3,800 1,700 Climbing FlightAware ADS-B
Sun 11:31:52 PM 40.5820 -73.5150 91° East 287 330 4,700 1,831 Climbing FlightAware ADS-B
Sun 11:32:21 PM 40.5804 -73.4602 92° East 292 336 5,600 1,915 Climbing FlightAware ADS-B
Sun 11:32:39 PM 40.5794 -73.4279 92° East 296 341 6,200 2,000 Climbing FlightAware ADS-B
Sun 11:32:54 PM 40.5783 -73.4005 93° East 301 346 6,700 1,765 Climbing FlightAware ADS-B
Sun 11:33:13 PM 40.5773 -73.3655 92° East 305 351 7,200 1,714 Climbing FlightAware ADS-B
Sun 11:33:29 PM 40.5763 -73.3360 93° East 308 354 7,700 1,935 Climbing FlightAware ADS-B
Sun 11:33:44 PM 40.5756 -73.3078 92° East 311 358 8,200 2,000 Climbing FlightAware ADS-B
Sun 11:33:59 PM 40.5747 -73.2792 92° East 313 360 8,700 1,875 Climbing FlightAware ADS-B
Sun 11:34:16 PM 40.5739 -73.2464 92° East 315 362 9,200 1,875 Climbing FlightAware ADS-B
Sun 11:34:31 PM 40.5728 -73.2166 93° East 316 364 9,700 1,915 Climbing FlightAware ADS-B
Sun 11:35:03 PM 40.5710 -73.1566 92° East 319 367 10,700 1,839 Climbing FlightAware ADS-B
Sun 11:35:33 PM 40.5691 -73.0971 92° East 324 373 11,600 1,889 Climbing FlightAware ADS-B
Sun 11:35:57 PM 40.5677 -73.0493 92° East 330 380 12,400 1,742 Climbing FlightAware ADS-B
Sun 11:36:04 PM 40.5682 -73.0349 87° East 336 387 12,500 1,059 Climbing FlightAware ADS-B
Sun 11:36:14 PM 40.5715 -73.0147 78° East 345 397 12,700 818 Climbing FlightAware ADS-B
Sun 11:36:26 PM 40.5798 -72.9918 64° Northeast 353 406 12,800 667 Climbing FlightAware ADS-B
Sun 11:36:32 PM 40.5851 -72.9816 56° Northeast 358 412 12,900 1,143 Climbing FlightAware ADS-B
Sun 11:36:47 PM 40.6017 -72.9566 49° Northeast 369 425 13,200 1,067 Climbing FlightAware ADS-B
Sun 11:37:17 PM 40.6371 -72.9039 48° Northeast 389 448 13,700 984 Climbing FlightAware ADS-B
Sun 11:37:48 PM 40.6750 -72.8484 48° Northeast 411 473 14,200 1,180 Climbing FlightAware ADS-B
Sun 11:38:18 PM 40.7138 -72.7905 49° Northeast 425 489 14,900 1,600 Climbing FlightAware ADS-B
Sun 11:38:48 PM 40.7538 -72.7305 49° Northeast 432 497 15,800 1,770 Climbing FlightAware ADS-B
Sun 11:39:19 PM 40.7941 -72.6696 49° Northeast 436 502 16,700 1,742 Climbing FlightAware ADS-B
Sun 11:39:50 PM 40.8356 -72.6070 49° Northeast 442 509 17,600 1,770 Climbing FlightAware ADS-B
Sun 11:40:20 PM 40.8765 -72.5451 49° Northeast 446 513 18,500 1,672 Climbing FlightAware ADS-B
Sun 11:40:51 PM 40.9184 -72.4819 49° Northeast 451 519 19,300 1,548 Climbing FlightAware ADS-B
Sun 11:41:22 PM 40.9614 -72.4173 49° Northeast 455 524 20,100 1,548 Climbing FlightAware ADS-B
Sun 11:41:53 PM 41.0056 -72.3504 49° Northeast 459 528 20,900 1,412 Climbing FlightAware ADS-B
Sun 11:42:47 PM 41.0790 -72.2390 49° Northeast 466 536 22,100 1,313 Climbing FlightAware ADS-B
Sun 11:42:57 PM 41.0954 -72.2141 49° Northeast 469 540 22,300 1,067 Climbing FlightAware ADS-B
Sun 11:43:32 PM 41.1380 -72.1490 49° Northeast 474 545 22,900 667 Climbing FlightAware ADS-B
Sun 11:44:27 PM 41.2150 -72.0320 49° Northeast 478 550 23,300 1,200 Climbing FlightAware ADS-B
Sun 11:45:07 PM 41.2760 -71.9380 49° Northeast 489 563 24,800 1,624 Climbing FlightAware ADS-B
Sun 11:45:52 PM 41.3460 -71.8300 49° Northeast 494 568 25,600 988 Climbing FlightAware ADS-B
Sun 11:46:32 PM 41.4080 -71.7340 49° Northeast 500 575 26,200 1,271 Climbing FlightAware ADS-B
Sun 11:47:17 PM 41.4750 -71.6300 49° Northeast 494 568 27,400 1,694 Climbing FlightAware ADS-B
Sun 11:47:57 PM 41.5360 -71.5360 49° Northeast 483 556 28,600 1,032 Climbing FlightAware ADS-B
Sun 11:48:50 PM 41.6164 -71.4322 49° Northeast 485 558 29,000 796 Climbing Boston Center
Sun 11:49:50 PM 41.7028 -71.2972 49° Northeast 480 552 30,100 1,000 Climbing Boston Center
Sun 11:50:50 PM 41.7889 -71.1650 49° Northeast 474 545 31,000 450 Climbing Boston Center
Sun 11:51:50 PM 41.8747 -71.0294 50° Northeast 468 539 31,000  Level Boston Center
Sun 11:57:17 PM 42.3280 -70.2820 50° Northeast 479 551 31,000  Level FlightAware ADS-B
Sun 11:57:57 PM 42.3890 -70.1830 50° Northeast 479 551 31,000  Level FlightAware ADS-B
Sun 11:58:42 PM 42.4520 -70.0820 50° Northeast 479 551 31,000  Level FlightAware ADS-B
Sun 11:59:22 PM 42.5040 -69.9980 50° Northeast 478 550 31,000  Level FlightAware ADS-B
Sun 11:59:57 PM 42.5570 -69.9120 50° Northeast 478 550 31,000  Level FlightAware ADS-B
Mon 12:00:47 AM 42.6290 -69.7950 50° Northeast 479 551 31,000  Level FlightAware ADS-B
Mon 12:01:27 AM 42.6870 -69.7000 50° Northeast 480 552 31,000  Level FlightAware ADS-B
Mon 12:02:12 AM 42.7510 -69.5960 50° Northeast 481 554 31,000  Level FlightAware ADS-B
Mon 12:02:47 AM 42.7940 -69.5260 50° Northeast 481 554 31,000  Level FlightAware ADS-B
Mon 12:03:32 AM 42.8500 -69.4350 50° Northeast 481 554 31,000  Level FlightAware ADS-B
Mon 12:04:17 AM 42.9280 -69.3030 51° Northeast 482 555 31,000  Level FlightAware ADS-B
Mon 12:05:07 AM 42.9940 -69.1930 51° Northeast 482 555 31,000  Level FlightAware ADS-B
Mon 12:05:52 AM 43.0580 -69.0870 50° Northeast 482 555 31,000  Level FlightAware ADS-B
Mon 12:06:32 AM 43.1160 -68.9890 51° Northeast 481 554 31,000  Level FlightAware ADS-B
Mon 12:07:17 AM 43.1830 -68.8770 51° Northeast 481 554 31,000  Level FlightAware ADS-B
Mon 12:07:52 AM 43.2260 -68.8070 50° Northeast 481 554 31,000  Level FlightAware ADS-B
Mon 12:08:42 AM 43.2860 -68.7080 50° Northeast 481 554 31,000  Level FlightAware ADS-B
Mon 12:09:17 AM 43.3410 -68.6110 52° Northeast 482 555 31,000  Level FlightAware ADS-B
Mon 12:10:22 AM 43.4370 -68.4520 50° Northeast 482 555 31,000  Level FlightAware ADS-B
Mon 12:11:02 AM 43.4850 -68.3720 50° Northeast 482 555 31,000  Level FlightAware ADS-B
Mon 12:11:42 AM 43.5340 -68.2920 50° Northeast 482 555 31,000  Level FlightAware ADS-B
Mon 12:12:22 AM 43.5830 -68.2120 50° Northeast 482 555 31,000  Level FlightAware ADS-B
Mon 12:13:12 AM 43.6440 -68.1110 50° Northeast 482 555 31,000  Level FlightAware ADS-B
Mon 12:13:47 AM 43.7310 -67.9470 54° Northeast 31,000  Level FlightAware ADS-B
Mon 12:14:37 AM 43.8010 -67.8270 51° Northeast 492 566 31,000  Level FlightAware ADS-B
Mon 12:15:17 AM 43.8580 -67.7280 51° Northeast 491 565 31,000  Level FlightAware ADS-B
Mon 12:15:57 AM 43.9160 -67.6290 51° Northeast 492 566 31,000  Level FlightAware ADS-B
Mon 12:16:42 AM 43.9790 -67.5190 51° Northeast 494 568 31,000  Level FlightAware ADS-B
Mon 12:17:22 AM 44.0370 -67.4180 51° Northeast 495 570 31,000  Level FlightAware ADS-B
Mon 12:18:02 AM 44.0930 -67.3190 52° Northeast 497 572 31,000  Level FlightAware ADS-B
Mon 12:18:47 AM 44.1570 -67.2070 51° Northeast 498 573 31,000  Level FlightAware ADS-B
Mon 12:19:27 AM 44.2150 -67.1050 52° Northeast 498 573 31,000  Level FlightAware ADS-B
Mon 12:20:12 AM 44.2790 -66.9940 51° Northeast 499 574 31,000  Level FlightAware ADS-B
Mon 12:20:52 AM 44.3370 -66.8900 52° Northeast 499 574 31,000  Level FlightAware ADS-B
Mon 12:21:32 AM 44.3930 -66.7900 52° Northeast 499 574 31,000  Level FlightAware ADS-B
Mon 12:22:17 AM 44.4570 -66.6760 52° Northeast 500 575 31,000  Level FlightAware ADS-B
Mon 12:22:57 AM 44.5150 -66.5720 52° Northeast 501 577 31,000  Level FlightAware ADS-B
Mon 12:23:42 AM 44.5790 -66.4570 52° Northeast 503 579 31,000  Level FlightAware ADS-B
Mon 12:24:22 AM 44.6370 -66.3530 52° Northeast 505 581 31,000  Level FlightAware ADS-B
Mon 12:25:02 AM 44.6940 -66.2500 52° Northeast 506 582 31,000  Level FlightAware ADS-B
Mon 12:25:47 AM 44.7590 -66.1310 52° Northeast 506 582 31,000  Level FlightAware ADS-B
Mon 12:26:27 AM 44.8170 -66.0260 52° Northeast 507 583 31,000  Level FlightAware ADS-B
Mon 12:27:12 AM 44.8800 -65.9090 53° Northeast 507 583 31,000  Level FlightAware ADS-B
Mon 12:27:52 AM 44.9390 -65.8020 52° Northeast 507 583 31,000  Level FlightAware ADS-B
Mon 12:28:32 AM 44.9950 -65.6980 53° Northeast 507 583 31,000  Level FlightAware ADS-B
Mon 12:29:17 AM 45.0600 -65.5770 53° Northeast 506 582 31,000  Level FlightAware ADS-B
Mon 12:29:57 AM 45.1160 -65.4730 53° Northeast 506 582 31,000  Level FlightAware ADS-B
Mon 12:30:37 AM 45.1750 -65.3640 52° Northeast 505 581 31,000  Level FlightAware ADS-B
Mon 12:31:22 AM 45.2380 -65.2480 52° Northeast 505 581 31,000  Level FlightAware ADS-B
Mon 12:32:02 AM 45.2930 -65.1450 53° Northeast 504 580 31,000  Level FlightAware ADS-B
Mon 12:32:47 AM 45.3610 -65.0170 53° Northeast 505 581 31,000  Level FlightAware ADS-B
Mon 12:33:27 AM 45.4170 -64.9120 53° Northeast 506 582 31,000  Level FlightAware ADS-B
Mon 12:34:07 AM 45.4730 -64.8050 53° Northeast 506 582 31,000  Level FlightAware ADS-B
Mon 12:34:52 AM 45.5350 -64.6880 53° Northeast 508 585 31,000  Level FlightAware ADS-B
Mon 12:35:32 AM 45.5900 -64.5810 54° Northeast 508 585 31,000  Level FlightAware ADS-B
Mon 12:36:17 AM 45.6550 -64.4550 54° Northeast 509 586 31,000  Level FlightAware ADS-B
Mon 12:36:57 AM 45.7110 -64.3460 54° Northeast 510 587 31,000  Level FlightAware ADS-B
Mon 12:37:37 AM 45.7670 -64.2380 53° Northeast 509 586 31,000  Level FlightAware ADS-B
Mon 12:38:22 AM 45.8290 -64.1160 54° Northeast 508 585 31,000  Level FlightAware ADS-B
Mon 12:39:02 AM 45.8830 -64.0090 54° Northeast 507 583 31,000  Level FlightAware ADS-B
Mon 12:39:42 AM 45.9330 -63.9100 54° Northeast 507 583 31,000  Level FlightAware ADS-B
Mon 12:40:22 AM 45.9800 -63.8170 54° Northeast 507 583 31,000  Level FlightAware ADS-B
Mon 12:41:02 AM 46.0270 -63.7240 54° Northeast 507 583 31,000  Level FlightAware ADS-B
Mon 12:41:52 AM 46.0860 -63.6080 54° Northeast 507 583 31,000  Level FlightAware ADS-B
Mon 12:42:32 AM 46.1330 -63.5150 54° Northeast 507 583 31,000  Level FlightAware ADS-B
Mon 12:43:12 AM 46.1790 -63.4210 55° Northeast 507 583 31,000  Level FlightAware ADS-B
Mon 12:43:52 AM 46.2260 -63.3280 54° Northeast 507 583 31,000  Level FlightAware ADS-B
Mon 12:44:32 AM 46.2730 -63.2350 54° Northeast 507 583 31,000  Level FlightAware ADS-B
Mon 12:45:22 AM 46.3320 -63.1180 54° Northeast 507 583 31,000  Level FlightAware ADS-B
Mon 12:46:02 AM 46.3790 -63.0250 54° Northeast 507 583 31,000  Level FlightAware ADS-B
Mon 12:46:42 AM 46.4250 -62.9310 55° Northeast 507 583 31,000  Level FlightAware ADS-B
Mon 12:47:22 AM 46.4720 -62.8370 54° Northeast 507 583 31,000  Level FlightAware ADS-B
Mon 12:48:02 AM 46.5190 -62.7440 54° Northeast 507 583 31,000  Level FlightAware ADS-B
Mon 12:48:52 AM 46.6830 -62.3620 58° Northeast 513 590 31,000  Level FlightAware ADS-B
Mon 12:49:32 AM 46.7370 -62.2460 56° Northeast 512 589 31,000  Level FlightAware ADS-B
Mon 12:50:12 AM 46.7870 -62.1430 55° Northeast 512 589 31,000  Level FlightAware ADS-B
Mon 12:50:52 AM 46.8410 -62.0280 56° Northeast 513 590 31,000  Level FlightAware ADS-B
Mon 12:51:32 AM 46.8870 -61.9310 55° Northeast 513 590 31,000  Level FlightAware ADS-B
Mon 12:52:22 AM 46.9450 -61.8100 55° Northeast 513 590 31,000  Level FlightAware ADS-B
Mon 12:53:02 AM 46.9910 -61.7130 55° Northeast 513 590 31,000  Level FlightAware ADS-B
Mon 12:53:52 AM 47.0820 -61.5070 57° Northeast 516 594 31,000  Level FlightAware ADS-B
Mon 12:54:42 AM 47.1530 -61.3490 57° Northeast 517 595 31,000  Level FlightAware ADS-B
Mon 12:55:22 AM 47.2060 -61.2320 56° Northeast 518 596 31,000  Level FlightAware ADS-B
Mon 12:56:07 AM 47.2640 -61.1040 56° Northeast 518 596 31,000  Level FlightAware ADS-B
Mon 12:56:47 AM 47.3170 -60.9850 57° Northeast 518 596 31,000  Level FlightAware ADS-B
Mon 12:57:42 AM 47.3840 -60.8380 56° Northeast 518 596 31,000  Level FlightAware ADS-B
Mon 12:58:22 AM 47.4290 -60.7380 56° Northeast 518 596 31,000  Level FlightAware ADS-B
Mon 12:59:02 AM 47.4750 -60.6380 56° Northeast 518 596 31,000  Level FlightAware ADS-B
Mon 12:59:42 AM 47.5200 -60.5380 56° Northeast 518 596 31,000  Level FlightAware ADS-B
Mon 01:00:32 AM 47.5770 -60.4130 56° Northeast 518 596 31,000  Level FlightAware ADS-B
Mon 01:01:12 AM 47.6230 -60.3130 56° Northeast 518 596 31,000  Level FlightAware ADS-B
Mon 01:01:52 AM 47.6680 -60.2120 56° Northeast 518 596 31,000  Level FlightAware ADS-B
Mon 01:02:32 AM 47.7140 -60.1120 56° Northeast 518 596 31,000  Level FlightAware ADS-B
Mon 01:03:12 AM 47.7590 -60.0120 56° Northeast 518 596 31,000  Level FlightAware ADS-B
Mon 01:04:02 AM 47.8160 -59.8860 56° Northeast 518 596 31,000  Level FlightAware ADS-B
Mon 01:04:42 AM 47.8620 -59.7850 56° Northeast 518 596 31,000  Level FlightAware ADS-B
Mon 01:05:22 AM 47.9080 -59.6850 56° Northeast 518 596 31,000  Level FlightAware ADS-B
Mon 01:06:02 AM 47.9530 -59.5840 56° Northeast 518 596 31,000  Level FlightAware ADS-B
Mon 01:06:52 AM 48.0900 -59.1830 63° Northeast 514 592 31,000  Level FlightAware ADS-B
Mon 01:07:32 AM 48.1390 -59.0660 58° Northeast 515 593 31,000  Level FlightAware ADS-B
Mon 01:08:12 AM 48.1890 -58.9440 58° Northeast 516 594 31,000  Level FlightAware ADS-B
Mon 01:08:57 AM 48.2470 -58.8050 58° Northeast 518 596 31,000  Level FlightAware ADS-B
Mon 01:09:32 AM 48.2860 -58.7080 59° Northeast 519 597 31,000  Level FlightAware ADS-B
Mon 01:10:22 AM 48.3500 -58.5500 59° Northeast 519 597 31,000  Level FlightAware ADS-B
Mon 01:11:02 AM 48.4000 -58.4280 58° Northeast 520 598 31,000  Level FlightAware ADS-B
Mon 01:11:47 AM 48.4540 -58.2920 59° Northeast 520 598 31,000  Level FlightAware ADS-B
Mon 01:12:27 AM 48.5090 -58.1560 59° Northeast 519 597 31,000  Level FlightAware ADS-B
Mon 01:13:07 AM 48.5580 -58.0330 59° Northeast 519 597 31,000  Level FlightAware ADS-B
Mon 01:13:52 AM 48.6090 -57.8890 62° Northeast 522 601 31,000  Level FlightAware ADS-B
Mon 01:14:32 AM 48.6510 -57.7630 63° Northeast 523 602 31,000  Level FlightAware ADS-B
Mon 01:15:12 AM 48.6980 -57.6280 62° Northeast 523 602 31,000  Level FlightAware ADS-B
Mon 01:15:57 AM 48.7480 -57.4820 63° Northeast 524 603 31,000  Level FlightAware ADS-B
Mon 01:16:32 AM 48.7860 -57.3720 62° Northeast 526 605 31,000  Level FlightAware ADS-B
Mon 01:17:17 AM 48.8330 -57.2340 63° Northeast 526 605 31,000  Level FlightAware ADS-B
Mon 01:18:02 AM 48.8890 -57.0720 62° Northeast 526 605 31,000  Level FlightAware ADS-B
Mon 01:18:42 AM 48.9330 -56.9410 63° Northeast 526 605 31,000  Level FlightAware ADS-B
Mon 01:19:27 AM 48.9820 -56.7950 63° Northeast 526 605 31,000  Level FlightAware ADS-B
Mon 01:20:07 AM 49.0270 -56.6610 63° Northeast 526 605 31,000  Level FlightAware ADS-B
Mon 01:20:47 AM 49.0720 -56.5270 63° Northeast 526 605 31,000  Level FlightAware ADS-B
Mon 01:21:32 AM 49.1200 -56.3820 63° Northeast 527 606 31,000  Level FlightAware ADS-B
Mon 01:22:17 AM 49.1700 -56.2300 63° Northeast 528 608 31,000  Level FlightAware ADS-B
Mon 01:22:57 AM 49.2140 -56.0990 63° Northeast 529 609 31,000  Level FlightAware ADS-B
Mon 01:23:37 AM 49.2590 -55.9620 63° Northeast 529 609 31,000  Level FlightAware ADS-B
Mon 01:24:22 AM 49.3080 -55.8110 63° Northeast 531 611 31,000  Level FlightAware ADS-B
Mon 01:25:02 AM 49.3520 -55.6760 63° Northeast 533 613 31,000  Level FlightAware ADS-B
Mon 01:25:47 AM 49.4020 -55.5240 63° Northeast 534 615 31,000  Level FlightAware ADS-B
Mon 01:26:27 AM 49.4460 -55.3870 64° Northeast 535 616 31,000  Level FlightAware ADS-B
Mon 01:27:07 AM 49.4900 -55.2510 63° Northeast 535 616 31,000  Level FlightAware ADS-B
Mon 01:27:52 AM 49.5390 -55.0980 64° Northeast 534 615 31,000  Level FlightAware ADS-B
Mon 01:28:32 AM 49.5820 -54.9610 64° Northeast 534 615 31,000  Level FlightAware ADS-B
Mon 01:29:07 AM 49.6200 -54.8420 64° Northeast 533 613 31,000  Level FlightAware ADS-B
Mon 01:29:57 AM 49.6730 -54.6720 64° Northeast 533 613 31,000 67 Level FlightAware ADS-B
Mon 01:30:37 AM 49.7160 -54.5340 64° Northeast 534 615 31,100 635 Climbing FlightAware ADS-B
Mon 01:31:22 AM 49.7630 -54.3790 65° Northeast 534 615 31,900 635 Climbing FlightAware ADS-B
Mon 01:32:02 AM 49.8060 -54.2410 64° Northeast 534 615 32,000 75 Climbing FlightAware ADS-B
Mon 01:32:42 AM 49.8470 -54.1050 65° Northeast 532 612 32,000  Level FlightAware ADS-B
Mon 01:33:27 AM 49.8950 -53.9470 65° Northeast 530 610 32,000  Level FlightAware ADS-B
Mon 01:34:07 AM 49.9370 -53.8090 65° Northeast 530 610 32,000  Level FlightAware ADS-B
Mon 01:34:52 AM 49.9830 -53.6550 65° Northeast 530 610 32,000  Level FlightAware ADS-B
Mon 01:35:32 AM 50.0250 -53.5160 65° Northeast 529 609 32,000  Level FlightAware ADS-B
Mon 01:36:12 AM 50.0650 -53.3810 65° Northeast 530 610 32,000  Level FlightAware ADS-B
Mon 01:36:52 AM 50.1070 -53.2400 65° Northeast 532 612 32,000  Level FlightAware ADS-B
Mon 01:37:37 AM 50.1540 -53.0820 65° Northeast 533 613 32,000  Level FlightAware ADS-B
Mon 01:38:12 AM 50.1890 -52.9620 65° Northeast 535 616 32,000  Level FlightAware ADS-B
Mon 01:39:02 AM 50.2380 -52.7960 65° Northeast 536 617 32,000  Level FlightAware ADS-B
Mon 01:39:42 AM 50.2810 -52.6450 66° East 537 618 32,000  Level FlightAware ADS-B
Mon 01:40:32 AM 50.3270 -52.4850 66° East 539 620 32,000  Level FlightAware ADS-B
Mon 01:41:22 AM 50.3700 -52.3330 66° East 539 620 32,000  Level FlightAware ADS-B
Mon 01:42:02 AM 50.4050 -52.2120 66° East 539 620 32,000  Level FlightAware ADS-B
Mon 01:42:42 AM 50.4390 -52.0900 66° East 539 620 32,000  Level FlightAware ADS-B
Mon 01:43:22 AM 50.4740 -51.9680 66° East 539 620 32,000  Level FlightAware ADS-B
Mon 01:44:02 AM 50.5080 -51.8470 66° East 539 620 32,000  Level FlightAware ADS-B
Mon 01:44:52 AM 50.5510 -51.6940 66° East 539 620 32,000  Level FlightAware ADS-B
Mon 01:45:32 AM 50.5860 -51.5720 66° East 539 620 32,000  Level FlightAware ADS-B
Mon 01:46:12 AM 50.6200 -51.4500 66° East 539 620 32,000  Level FlightAware ADS-B
Mon 01:46:52 AM 50.6550 -51.3280 66° East 539 620 32,000  Level FlightAware ADS-B
Mon 01:47:32 AM 50.6890 -51.2060 66° East 539 620 32,000  Level FlightAware ADS-B
Mon 01:48:22 AM 50.7320 -51.0530 66° East 539 620 32,000  Level FlightAware ADS-B
Mon 01:49:02 AM 50.7670 -50.9310 66° East 539 620 32,000  Level FlightAware ADS-B
Mon 01:49:42 AM 50.8010 -50.8080 66° East 539 620 32,000  Level FlightAware ADS-B
Mon 01:50:40 AM 50.9333 -50.1833 66° East 560 644 32,000  Level Gander Center
Mon 01:50:56 AM 50.9333 -50.1333 90° East 560 644 32,000  Level Gander Center
Mon 01:51:56 AM 51.0000 -49.9000 66° East 560 644 32,000  Level Gander Center
Mon 01:52:56 AM 51.0333 -49.6500 78° East 560 644 32,000  Level Gander Center
Mon 01:53:40 AM 51.0500 -49.5167 79° East 560 644 32,000  Level Gander Center
Mon 01:54:00 AM 51.0000 -50.0000 77° East 566 651 32,000  Level ETMS Enhanced Traffic Management System
Mon 02:01:00 AM 51.3292 -47.5438 79° East 566 651 32,000  Level FlightAware Transoceanic
Mon 02:02:00 AM 51.3593 -47.2963 79° East 566 651 32,000  Level FlightAware Transoceanic
Mon 02:03:00 AM 51.3889 -47.0485 79° East 566 651 32,000  Level FlightAware Transoceanic
Mon 02:04:00 AM 51.4179 -46.8004 79° East 566 651 32,000  Level FlightAware Transoceanic
Mon 02:05:00 AM 51.4464 -46.5519 80° East 566 651 32,000  Level FlightAware Transoceanic
Mon 02:06:00 AM 51.4744 -46.3032 80° East 566 651 32,000  Level FlightAware Transoceanic
Mon 02:07:00 AM 51.5018 -46.0541 80° East 566 651 32,000  Level FlightAware Transoceanic
Mon 02:08:00 AM 51.5288 -45.8048 80° East 566 651 32,000  Level FlightAware Transoceanic
Mon 02:09:00 AM 51.5552 -45.5551 80° East 566 651 32,000  Level FlightAware Transoceanic
Mon 02:10:00 AM 51.5810 -45.3052 81° East 566 651 32,000  Level FlightAware Transoceanic
Mon 02:11:00 AM 51.6064 -45.0550 81° East 566 651 32,000  Level FlightAware Transoceanic
Mon 02:12:00 AM 51.6312 -44.8045 81° East 566 651 32,000  Level FlightAware Transoceanic
Mon 02:13:00 AM 51.6554 -44.5537 81° East 566 651 32,000  Level FlightAware Transoceanic
Mon 02:14:00 AM 51.6792 -44.3027 81° East 566 651 32,000  Level FlightAware Transoceanic
Mon 02:15:00 AM 51.7024 -44.0514 82° East 566 651 32,000  Level FlightAware Transoceanic
Mon 02:16:00 AM 51.7250 -43.7999 82° East 566 651 32,000  Level FlightAware Transoceanic
Mon 02:17:00 AM 51.7472 -43.5481 82° East 566 651 32,000  Level FlightAware Transoceanic
Mon 02:18:00 AM 51.7687 -43.2961 82° East 566 651 32,000  Level FlightAware Transoceanic
Mon 02:19:00 AM 51.7898 -43.0438 82° East 566 651 32,000  Level FlightAware Transoceanic
Mon 02:20:00 AM 51.8103 -42.7913 83° East 566 651 32,000  Level FlightAware Transoceanic
Mon 02:21:00 AM 51.8303 -42.5385 83° East 566 651 32,000  Level FlightAware Transoceanic
Mon 02:22:00 AM 51.8497 -42.2856 83° East 566 651 32,000  Level FlightAware Transoceanic
Mon 02:23:00 AM 51.8686 -42.0324 83° East 566 651 32,000  Level FlightAware Transoceanic
Mon 02:24:00 AM 51.8869 -41.7790 83° East 566 651 32,000  Level FlightAware Transoceanic
Mon 02:25:00 AM 51.9047 -41.5255 84° East 566 651 32,000  Level FlightAware Transoceanic
Mon 02:26:00 AM 51.9220 -41.2717 84° East 566 651 32,000  Level FlightAware Transoceanic
Mon 02:27:00 AM 51.9387 -41.0177 84° East 566 651 32,000  Level FlightAware Transoceanic
Mon 02:28:00 AM 51.9548 -40.7635 84° East 566 651 32,000  Level FlightAware Transoceanic
Mon 02:29:00 AM 51.9704 -40.5092 84° East 566 651 32,000  Level FlightAware Transoceanic
Mon 02:30:00 AM 51.9855 -40.2547 85° East 566 651 32,000  Level FlightAware Transoceanic
Mon 02:31:00 AM 51.9986 -40.0243 85° East  Level FlightAware Approximate
Mon 02:32:00 AM 52.0113 -39.7937 85° East  Level FlightAware Approximate
Mon 02:33:00 AM 52.0248 -39.8218 77° East  Level FlightAware Approximate
Mon 02:33:00 AM 52.0000 -40.0000 77° East 583 671 32,000  Level ETMS Enhanced Traffic Management System
Mon 02:34:00 AM 52.0558 -39.5956 77° East  Level FlightAware Approximate
Mon 02:35:00 AM 52.0863 -39.3692 78° East  Level FlightAware Approximate
Mon 02:36:00 AM 52.1164 -39.1425 78° East  Level FlightAware Approximate
Mon 02:37:00 AM 52.1461 -38.9155 78° East  Level FlightAware Approximate
Mon 02:38:00 AM 52.1754 -38.6882 78° East  Level FlightAware Approximate
Mon 02:39:00 AM 52.3125 -37.6755 79° East 583 671 32,000  Level FlightAware Transoceanic
Mon 02:40:00 AM 52.3444 -37.4152 79° East 583 671 32,000  Level FlightAware Transoceanic
Mon 02:41:00 AM 52.3757 -37.1546 79° East 583 671 32,000  Level FlightAware Transoceanic
Mon 02:42:00 AM 52.4064 -36.8937 79° East 583 671 32,000  Level FlightAware Transoceanic
Mon 02:43:00 AM 52.4366 -36.6323 79° East 583 671 32,000  Level FlightAware Transoceanic
Mon 02:44:00 AM 52.4662 -36.3706 80° East 583 671 32,000  Level FlightAware Transoceanic
Mon 02:45:00 AM 52.4952 -36.1086 80° East 583 671 32,000  Level FlightAware Transoceanic
Mon 02:46:00 AM 52.5236 -35.8462 80° East 583 671 32,000  Level FlightAware Transoceanic
Mon 02:47:00 AM 52.5515 -35.5834 80° East 583 671 32,000  Level FlightAware Transoceanic
Mon 02:48:00 AM 52.5788 -35.3204 80° East 583 671 32,000  Level FlightAware Transoceanic
Mon 02:49:00 AM 52.6054 -35.0570 81° East 583 671 32,000  Level FlightAware Transoceanic
Mon 02:50:00 AM 52.6315 -34.7933 81° East 583 671 32,000  Level FlightAware Transoceanic
Mon 02:51:00 AM 52.6571 -34.5293 81° East 583 671 32,000  Level FlightAware Transoceanic
Mon 02:52:00 AM 52.6820 -34.2650 81° East 583 671 32,000  Level FlightAware Transoceanic
Mon 02:53:00 AM 52.7063 -34.0004 81° East 583 671 32,000  Level FlightAware Transoceanic
Mon 02:54:00 AM 52.7301 -33.7355 82° East 583 671 32,000  Level FlightAware Transoceanic
Mon 02:55:00 AM 52.7532 -33.4703 82° East 583 671 32,000  Level FlightAware Transoceanic
Mon 02:56:00 AM 52.7758 -33.2048 82° East 583 671 32,000  Level FlightAware Transoceanic
Mon 02:57:00 AM 52.7977 -32.9391 82° East 583 671 32,000  Level FlightAware Transoceanic
Mon 02:58:00 AM 52.8191 -32.6731 83° East 583 671 32,000  Level FlightAware Transoceanic
Mon 02:59:00 AM 52.8399 -32.4068 83° East 583 671 32,000  Level FlightAware Transoceanic
Mon 03:00:00 AM 52.8601 -32.1403 83° East 583 671 32,000  Level FlightAware Transoceanic
Mon 03:01:00 AM 52.8797 -31.8736 83° East 583 671 32,000  Level FlightAware Transoceanic
Mon 03:02:00 AM 52.8987 -31.6066 83° East 583 671 32,000  Level FlightAware Transoceanic
Mon 03:03:00 AM 52.9171 -31.3393 84° East 583 671 32,000  Level FlightAware Transoceanic
Mon 03:04:00 AM 52.9348 -31.0719 84° East 583 671 32,000  Level FlightAware Transoceanic
Mon 03:05:00 AM 52.9520 -30.8042 84° East 583 671 32,000  Level FlightAware Transoceanic
Mon 03:06:00 AM 52.9686 -30.5364 84° East 583 671 32,000  Level FlightAware Transoceanic
Mon 03:07:00 AM 52.9846 -30.2683 84° East 583 671 32,000  Level FlightAware Transoceanic
Mon 03:08:00 AM 52.9982 -30.0326 84° East  Level FlightAware Approximate
Mon 03:09:00 AM 53.0112 -29.7968 85° East  Level FlightAware Approximate
Mon 03:10:00 AM 53.0071 -29.8292 86° East  Level FlightAware Approximate
Mon 03:10:00 AM 53.0000 -30.0000 86° East 541 623 32,000  Level ETMS Enhanced Traffic Management System
Mon 03:11:00 AM 53.0164 -29.5928 86° East  Level FlightAware Approximate
Mon 03:12:00 AM 53.0253 -29.3564 86° East  Level FlightAware Approximate
Mon 03:13:00 AM 53.0337 -29.1199 87° East  Level FlightAware Approximate
Mon 03:14:00 AM 53.0417 -28.8833 87° East  Level FlightAware Approximate
Mon 03:15:00 AM 53.0492 -28.6466 87° East  Level FlightAware Approximate
Mon 03:16:00 AM 53.0562 -28.4099 87° East  Level FlightAware Approximate
Mon 03:17:00 AM 53.0732 -27.7531 88° East 541 623 32,000  Level FlightAware Transoceanic
Mon 03:18:00 AM 53.0787 -27.5030 88° East 541 623 32,000  Level FlightAware Transoceanic
Mon 03:19:00 AM 53.0837 -27.2529 88° East 541 623 32,000  Level FlightAware Transoceanic
Mon 03:20:00 AM 53.0881 -27.0027 88° East 541 623 32,000  Level FlightAware Transoceanic
Mon 03:21:00 AM 53.0921 -26.7525 89° East 541 623 32,000  Level FlightAware Transoceanic
Mon 03:22:00 AM 53.0955 -26.5022 89° East 541 623 32,000  Level FlightAware Transoceanic
Mon 03:23:00 AM 53.0984 -26.2519 89° East 541 623 32,000  Level FlightAware Transoceanic
Mon 03:24:00 AM 53.1007 -26.0016 89° East 541 623 32,000  Level FlightAware Transoceanic
Mon 03:25:00 AM 53.1026 -25.7512 89° East 541 623 32,000  Level FlightAware Transoceanic
Mon 03:26:00 AM 53.1039 -25.5008 90° East 541 623 32,000  Level FlightAware Transoceanic
Mon 03:27:00 AM 53.1047 -25.2504 90° East 541 623 32,000  Level FlightAware Transoceanic
Mon 03:28:00 AM 53.1049 -25.0000 90° East 541 623 32,000  Level FlightAware Transoceanic
Mon 03:29:00 AM 53.1047 -24.7496 90° East 541 623 32,000  Level FlightAware Transoceanic
Mon 03:30:00 AM 53.1039 -24.4992 90° East 541 623 32,000  Level FlightAware Transoceanic
Mon 03:31:00 AM 53.1026 -24.2488 91° East 541 623 32,000  Level FlightAware Transoceanic
Mon 03:32:00 AM 53.1007 -23.9984 91° East 541 623 32,000  Level FlightAware Transoceanic
Mon 03:33:00 AM 53.0984 -23.7481 91° East 541 623 32,000  Level FlightAware Transoceanic
Mon 03:34:00 AM 53.0955 -23.4978 91° East 541 623 32,000  Level FlightAware Transoceanic
Mon 03:35:00 AM 53.0921 -23.2475 91° East 541 623 32,000  Level FlightAware Transoceanic
Mon 03:36:00 AM 53.0881 -22.9973 92° East 541 623 32,000  Level FlightAware Transoceanic
Mon 03:37:00 AM 53.0837 -22.7471 92° East 541 623 32,000  Level FlightAware Transoceanic
Mon 03:38:00 AM 53.0787 -22.4970 92° East 541 623 32,000  Level FlightAware Transoceanic
Mon 03:39:00 AM 53.0732 -22.2469 92° East 541 623 32,000  Level FlightAware Transoceanic
Mon 03:40:00 AM 53.0671 -21.9969 92° East 541 623 32,000  Level FlightAware Transoceanic
Mon 03:41:00 AM 53.0606 -21.7470 93° East 541 623 32,000  Level FlightAware Transoceanic
Mon 03:42:00 AM 53.0535 -21.4971 93° East 541 623 32,000  Level FlightAware Transoceanic
Mon 03:43:00 AM 53.0459 -21.2473 93° East 541 623 32,000  Level FlightAware Transoceanic
Mon 03:44:00 AM 53.0377 -20.9977 93° East 541 623 32,000  Level FlightAware Transoceanic
Mon 03:45:00 AM 53.0291 -20.7481 93° East 541 623 32,000  Level FlightAware Transoceanic
Mon 03:46:00 AM 53.0199 -20.4986 94° East 541 623 32,000  Level FlightAware Transoceanic
Mon 03:47:00 AM 53.0102 -20.2493 94° East 541 623 32,000 Level FlightAware Transoceanic
Mon 03:48:00 AM 53.0005 -20.0130 94° East  Level FlightAware Approximate
Mon 03:49:00 AM 52.9903 -19.7769 94° East  Level FlightAware Approximate
Mon 03:50:00 AM 52.9993 -19.7893 90° East  Level FlightAware Approximate
Mon 03:51:00 AM 52.9982 -19.5584 90° East  Level FlightAware Approximate
Mon 03:52:00 AM 52.9966 -19.3274 91° East  Level FlightAware Approximate
Mon 03:53:00 AM 52.9945 -19.0965 91° East  Level FlightAware Approximate
Mon 03:54:00 AM 52.9920 -18.8656 91° East  Level FlightAware Approximate
Mon 03:55:00 AM 52.9890 -18.6348 91° East  Level FlightAware Approximate
Mon 03:56:00 AM 52.9856 -18.4039 91° East  Level FlightAware Approximate
Mon 03:57:00 AM 52.9818 -18.1731 91° East  Level FlightAware Approximate
Mon 03:58:00 AM 52.9775 -17.9424 92° East  Level FlightAware Approximate
Mon 03:59:00 AM 52.9727 -17.7117 92° East  Level FlightAware Approximate
Mon 04:00:00 AM 52.9675 -17.4810 92° East  Level FlightAware Approximate
Mon 04:01:00 AM 52.9619 -17.2504 92° East  Level FlightAware Approximate
Mon 04:02:00 AM 52.9558 -17.0199 92° East  Level FlightAware Approximate
Mon 04:03:00 AM 52.9493 -16.7894 93° East  Level FlightAware Approximate
Mon 04:04:00 AM 52.9423 -16.5591 93° East  Level FlightAware Approximate
Mon 04:05:00 AM 52.9349 -16.3288 93° East  Level FlightAware Approximate
Mon 04:06:00 AM 52.9270 -16.0985 93° East  Level FlightAware Approximate
Mon 04:07:00 AM 52.9187 -15.8684 93° East  Level FlightAware Approximate
Mon 04:08:00 AM 52.9100 -15.6383 94° East  Level FlightAware Approximate
Mon 04:09:00 AM 52.9008 -15.4084 94° East  Level FlightAware Approximate
Mon 04:10:00 AM 52.8911 -15.1785 94° East  Level FlightAware Approximate
Mon 04:11:00 AM 52.8812 -14.9487 94° East  Level FlightAware Approximate
Mon 04:12:00 AM 52.8716 -14.7190 94° East  Level FlightAware Approximate
Mon 04:13:00 AM 52.8615 -14.4893 94° East  Level FlightAware Approximate
Mon 04:14:00 AM 52.8509 -14.2598 94° East  Level FlightAware Approximate
Mon 04:15:00 AM 52.8399 -14.0304 94° East  Level FlightAware Approximate
Mon 04:16:00 AM 52.8285 -13.8011 95° East  Level FlightAware Approximate
Mon 04:17:00 AM 52.8166 -13.5719 95° East  Level FlightAware Approximate
Mon 04:18:00 AM 52.8043 -13.3428 95° East  Level FlightAware Approximate
Mon 04:18:52 AM 52.9240 -12.6900 95° East 517 595 32,200  Level FlightAware ADS-B
Mon 04:19:00 AM 52.7915 -13.1139 95° East  Level FlightAware Approximate
Mon 04:19:37 AM 52.9280 -12.4930 88° East 518 596 33,200  Level FlightAware ADS-B
Mon 04:20:32 AM 52.9320 -12.2750 88° East 521 600 34,200 1,080 Climbing FlightAware ADS-B
Mon 04:21:17 AM 52.9350 -12.0870 88° East 519 597 35,000 565 Climbing FlightAware ADS-B
Mon 04:21:57 AM 52.9310 -11.9420 93° East 517 595 35,000  Level FlightAware ADS-B
Mon 04:22:37 AM 52.9170 -11.7910 99° East 515 593 35,000  Level FlightAware ADS-B
Mon 04:23:22 AM 52.8990 -11.6110 99° East 513 590 35,000  Level FlightAware ADS-B
Mon 04:24:02 AM 52.8840 -11.4580 99° East 512 589 35,000  Level FlightAware ADS-B
Mon 04:24:42 AM 52.8690 -11.3010 99° East 510 587 35,000  Level FlightAware ADS-B
Mon 04:25:27 AM 52.8510 -11.1270 100° East 508 585 35,000  Level FlightAware ADS-B
Mon 04:26:07 AM 52.8350 -10.9780 100° East 508 585 35,000  Level FlightAware ADS-B
Mon 04:26:52 AM 52.8160 -10.8040 100° East 508 585 35,000  Level FlightAware ADS-B
Mon 04:27:32 AM 52.7980 -10.6500 101° East 508 585 35,000  Level FlightAware ADS-B
Mon 04:28:12 AM 52.7810 -10.5000 101° East 505 581 35,000  Level FlightAware ADS-B
Mon 04:28:57 AM 52.7600 -10.3280 101° East 503 579 35,000  Level FlightAware ADS-B
Mon 04:29:37 AM 52.7440 -10.1880 101° East 502 578 35,000  Level FlightAware ADS-B
Mon 04:30:22 AM 52.7230 -10.0140 101° East 499 574 35,000  Level FlightAware ADS-B
Mon 04:31:02 AM 52.7040 -9.8580 101° East 498 573 35,000  Level FlightAware ADS-B
Mon 04:31:42 AM 52.6850 -9.7060 102° East 497 572 35,000  Level FlightAware ADS-B
Mon 04:32:27 AM 52.6640 -9.5370 102° East 497 572 35,000  Level FlightAware ADS-B
Mon 04:33:07 AM 52.6460 -9.3930 102° East 497 572 35,000  Level FlightAware ADS-B
Mon 04:33:47 AM 52.6260 -9.2390 102° East 497 572 35,000  Level FlightAware ADS-B
Mon 04:34:32 AM 52.6050 -9.0760 102° East 497 572 35,000 -1,233 Level FlightAware ADS-B
Mon 04:35:00 AM 52.5901 -8.9797 102° East 484 557 33,500  Descending FlightAware UK
Mon 04:35:12 AM 52.5860 -8.9290 102° East 497 572 35,000  Climbing FlightAware ADS-B
Mon 04:35:30 AM 52.5755 -8.8696 102° East 482 555 33,500 -2,500 Descending FlightAware UK
Mon 04:35:48 AM 52.5668 -8.8037 102° East 482 555 33,500 3,333 Level FlightAware UK
Mon 04:35:57 AM 52.5640 -8.7600 102° East 498 573 35,000  Climbing FlightAware ADS-B
Mon 04:36:12 AM 52.5550 -8.7154 102° East 486 559 33,500 -2,727 Descending FlightAware UK
Mon 04:36:30 AM 52.5460 -8.6492 103° East 486 559 33,500 3,600 Level FlightAware UK
Mon 04:36:37 AM 52.5450 -8.6150 103° East 498 573 35,000  Climbing FlightAware ADS-B
Mon 04:36:54 AM 52.5342 -8.5606 103° East 484 557 33,500 -2,571 Descending FlightAware UK
Mon 04:37:12 AM 52.5252 -8.4944 103° East 484 557 33,500 3,913 Level FlightAware UK
Mon 04:37:17 AM 52.5240 -8.4620 103° East 499 574 35,000  Climbing FlightAware ADS-B
Mon 04:37:36 AM 52.5131 -8.4062 103° East 486 559 33,500 -2,432 Descending FlightAware UK
Mon 04:37:54 AM 52.5040 -8.3401 103° East 486 559 33,500 3,462 Level FlightAware UK
Mon 04:38:02 AM 52.5020 -8.2970 103° East 500 575 35,000  Climbing FlightAware ADS-B
Mon 04:38:18 AM 52.4916 -8.2510 103° East 486 559 33,500 -2,647 Descending FlightAware UK
Mon 04:38:36 AM 52.4823 -8.1846 103° East 486 559 33,500 3,750 Level FlightAware UK
Mon 04:38:42 AM 52.4820 -8.1490 103° East 502 578 35,000  Climbing FlightAware ADS-B
Mon 04:39:00 AM 52.4699 -8.0962 103° East 484 557 33,500 -2,500 Descending FlightAware UK
Mon 04:39:18 AM 52.4606 -8.0299 103° East 486 559 33,500 4,091 Level FlightAware UK
Mon 04:39:22 AM 52.4600 -7.9950 103° East 503 579 35,000  Climbing FlightAware ADS-B
Mon 04:39:42 AM 52.4478 -7.9414 103° East 486 559 33,500 -2,368 Descending FlightAware UK
Mon 04:40:00 AM 52.4382 -7.8749 103° East 488 562 33,500 3,600 Level FlightAware UK
Mon 04:40:07 AM 52.4360 -7.8280 103° East 504 580 35,000  Climbing FlightAware ADS-B
Mon 04:40:24 AM 52.4254 -7.7863 103° East 488 562 33,500 -2,571 Descending FlightAware UK
Mon 04:40:42 AM 52.4158 -7.7197 103° East 486 559 33,500 3,913 Level FlightAware UK
Mon 04:40:47 AM 52.4150 -7.6800 103° East 506 582 35,000  Climbing FlightAware ADS-B
Mon 04:41:06 AM 52.4029 -7.6309 103° East 486 559 33,500 -2,432 Descending FlightAware UK
Mon 04:41:24 AM 52.3932 -7.5643 103° East 486 559 33,500 3,462 Level FlightAware UK
Mon 04:41:32 AM 52.3910 -7.5080 103° East 506 582 35,000  Climbing FlightAware ADS-B
Mon 04:41:48 AM 52.3801 -7.4755 103° East 486 559 33,500 -2,647 Descending FlightAware UK
Mon 04:42:06 AM 52.3703 -7.4089 104° East 488 562 33,500 3,750 Level FlightAware UK
Mon 04:42:12 AM 52.3690 -7.3570 104° East 508 585 35,000  Climbing FlightAware ADS-B
Mon 04:42:30 AM 52.3572 -7.3200 104° East 488 562 33,500 -2,500 Descending FlightAware UK
Mon 04:42:48 AM 52.3473 -7.2532 104° East 488 562 33,500 3,333 Level FlightAware UK
Mon 04:42:57 AM 52.3450 -7.1930 104° East 510 587 35,000  Climbing FlightAware ADS-B
Mon 04:43:12 AM 52.3339 -7.1639 104° East 488 562 33,500 -2,727 Descending FlightAware UK
Mon 04:43:30 AM 52.3238 -7.0961 104° East 488 562 33,500 3,600 Level FlightAware UK
Mon 04:43:37 AM 52.3230 -7.0430 104° East 511 588 35,000  Climbing FlightAware ADS-B
Mon 04:43:54 AM 52.3104 -7.0067 104° East 492 566 33,500 -2,571 Descending FlightAware UK
Mon 04:44:12 AM 52.3003 -6.9396 104° East 492 566 33,500 3,913 Level FlightAware UK
Mon 04:44:17 AM 52.3010 -6.8920 104° East 511 588 35,000  Climbing FlightAware ADS-B
Mon 04:44:36 AM 52.2868 -6.8503 104° East 490 564 33,500 -2,432 Descending FlightAware UK
Mon 04:44:54 AM 52.2767 -6.7835 104° East 492 566 33,500 4,286 Level FlightAware UK
Mon 04:44:57 AM 52.2800 -6.7530 104° East 509 586 35,000  Climbing FlightAware ADS-B
Mon 04:45:12 AM 52.2665 -6.7168 104° East 492 566 33,500 -2,727 Descending FlightAware UK
Mon 04:45:30 AM 52.2563 -6.6501 104° East 492 566 33,500 3,000 Level FlightAware UK
Mon 04:45:42 AM 52.2540 -6.5840 104° East 507 583 35,000  Climbing FlightAware ADS-B
Mon 04:46:00 AM 52.2391 -6.5394 104° East 490 564 33,500 -2,500 Descending FlightAware UK
Mon 04:46:18 AM 52.2287 -6.4732 104° East 488 562 33,500 4,091 Level FlightAware UK
Mon 04:46:22 AM 52.2310 -6.4350 104° East 506 582 35,000  Climbing FlightAware ADS-B
Mon 04:46:42 AM 52.2149 -6.3852 104° East 488 562 33,500 -2,368 Descending FlightAware UK
Mon 04:47:00 AM 52.2046 -6.3192 104° East 486 559 33,500 3,600 Level FlightAware UK
Mon 04:47:07 AM 52.2050 -6.2630 104° East 505 581 35,000  Climbing FlightAware ADS-B
Mon 04:47:24 AM 52.1910 -6.2313 104° East 486 559 33,500 -2,571 Descending FlightAware UK
Mon 04:47:42 AM 52.1806 -6.1654 104° East 486 559 33,500 3,913 Level FlightAware UK
Mon 04:47:47 AM 52.1820 -6.1200 104° East 505 581 35,000  Climbing FlightAware ADS-B
Mon 04:48:06 AM 52.1665 -6.0778 104° East 486 559 33,500 -2,432 Descending FlightAware UK
Mon 04:48:24 AM 52.1558 -6.0120 105° East 488 562 33,500 3,462 Level FlightAware UK
Mon 04:48:32 AM 52.1560 -5.9530 105° East 505 581 35,000  Climbing FlightAware ADS-B
Mon 04:48:48 AM 52.1416 -5.9236 105° East 488 562 33,500 -2,647 Descending FlightAware UK
Mon 04:49:06 AM 52.1311 -5.8578 105° East 486 559 33,500 3,750 Level FlightAware UK
Mon 04:49:12 AM 52.1330 -5.8050 105° East 504 580 35,000  Climbing FlightAware ADS-B
Mon 04:49:30 AM 52.1170 -5.7702 105° East 484 557 33,500 -2,500 Descending FlightAware UK
Mon 04:49:48 AM 52.1065 -5.7045 105° East 484 557 33,500 4,091 Level FlightAware UK
Mon 04:49:52 AM 52.1090 -5.6560 105° East 505 581 35,000  Climbing FlightAware ADS-B
Mon 04:50:12 AM 52.0924 -5.6169 105° East 484 557 33,500 -2,368 Descending FlightAware UK
Mon 04:50:30 AM 52.0816 -5.5512 105° East 484 557 33,500 3,600 Level FlightAware UK
Mon 04:50:37 AM 52.0820 -5.4900 105° East 506 582 35,000  Climbing FlightAware ADS-B
Mon 04:50:54 AM 52.0672 -5.4635 105° East 484 557 33,500 -2,571 Descending FlightAware UK
Mon 04:51:12 AM 52.0564 -5.3977 105° East 486 559 33,500 3,913 Level FlightAware UK
Mon 04:51:17 AM 52.0580 -5.3440 105° East 507 583 35,000  Climbing FlightAware ADS-B
Mon 04:51:36 AM 52.0418 -5.3098 105° East 488 562 33,500 -2,432 Descending FlightAware UK
Mon 04:51:54 AM 52.0308 -5.2439 105° East 488 562 33,500 3,462 Level FlightAware UK
Mon 04:52:02 AM 52.0320 -5.1820 105° East 507 583 35,000  Climbing FlightAware ADS-B
Mon 04:52:18 AM 52.0161 -5.1559 105° East 490 564 33,500 -2,647 Descending FlightAware UK
Mon 04:52:36 AM 52.0049 -5.0900 105° East 486 559 33,500 3,750 Level FlightAware UK
Mon 04:52:42 AM 52.0080 -5.0360 105° East 507 583 35,000  Climbing FlightAware ADS-B
Mon 04:53:00 AM 51.9909 -5.0021 105° East 486 559 33,500 -2,500 Descending FlightAware UK
Mon 04:53:18 AM 51.9820 -4.9354 102° East 486 559 33,500 3,333 Level FlightAware UK
Mon 04:53:27 AM 51.9830 -4.8630 102° East 509 586 35,000  Climbing FlightAware ADS-B
Mon 04:53:42 AM 51.9709 -4.8453 102° East 490 564 33,500 -2,727 Descending FlightAware UK
Mon 04:54:00 AM 51.9642 -4.7771 99° East 492 566 33,500 3,600 Level FlightAware UK
Mon 04:54:07 AM 51.9670 -4.7130 99° East 509 586 35,000  Climbing FlightAware ADS-B
Mon 04:54:24 AM 51.9553 -4.6875 99° East 490 564 33,500 -2,571 Descending FlightAware UK
Mon 04:54:42 AM 51.9482 -4.6201 100° East 490 564 33,500 3,913 Level FlightAware UK
Mon 04:54:47 AM 51.9510 -4.5630 100° East 508 585 35,000  Climbing FlightAware ADS-B
Mon 04:55:06 AM 51.9381 -4.5307 100° East 488 562 33,500  Descending FlightAware UK
Mon 04:55:32 AM 51.9320 -4.3970 100° East 507 583 35,000  Climbing FlightAware ADS-B
Mon 04:55:48 AM 51.9192 -4.3747 100° East 488 562 33,500 -2,647 Descending FlightAware UK
Mon 04:56:06 AM 51.9110 -4.3079 101° East 488 562 33,500 3,750 Level FlightAware UK
Mon 04:56:12 AM 51.9130 -4.2430 101° East 508 585 35,000 1,765 Climbing FlightAware ADS-B
Mon 04:56:57 AM 51.8930 -4.0810 101° East 508 585 35,000 -1,500 Level FlightAware ADS-B
Mon 04:57:12 AM 51.8804 -4.0625 101° East 488 562 33,500  Descending FlightAware UK
Mon 04:57:37 AM 51.8750 -3.9320 101° East 508 585 35,000  Climbing FlightAware ADS-B
Mon 04:57:55 AM 51.8607 -3.9057 101° East 488 562 33,500 -2,500 Descending FlightAware UK
Mon 04:58:13 AM 51.8522 -3.8388 102° East 488 562 33,500 4,091 Level FlightAware UK
Mon 04:58:17 AM 51.8560 -3.7830 102° East 507 583 35,000 3,214 Climbing FlightAware ADS-B
Mon 04:58:41 AM 51.8439 -3.6867 101° East 507 583 35,000  Level FlightAware ADS-B
Mon 04:59:12 AM 51.8292 -3.5712 102° East 507 583 35,000 -1,800 Level FlightAware ADS-B
Mon 04:59:31 AM 51.8155 -3.5497 102° East 490 564 33,500  Descending FlightAware UK
Mon 04:59:43 AM 51.8140 -3.4540 102° East 506 582 35,000  Climbing FlightAware ADS-B
Mon 05:00:01 AM 51.8008 -3.4389 102° East 488 562 33,500  Descending FlightAware UK
Mon 05:00:19 AM 51.7960 -3.3213 102° East 506 582 35,000 1,500 Climbing FlightAware ADS-B
Mon 05:01:01 AM 51.7755 -3.1690 102° East 505 581 35,000 -1,500 Level FlightAware ADS-B
Mon 05:01:19 AM 51.7617 -3.1510 102° East 488 562 33,500  Descending FlightAware UK
Mon 05:01:35 AM 51.7589 -3.0430 102° East 503 579 35,000 1,698 Climbing FlightAware ADS-B
Mon 05:02:12 AM 51.7410 -2.9083 102° East 503 579 35,000 -1,607 Level FlightAware ADS-B
Mon 05:02:31 AM 51.7267 -2.8863 102° East 492 566 33,500  Descending FlightAware UK
Mon 05:02:43 AM 51.7256 -2.7925 102° East 502 578 35,000 2,045 Climbing FlightAware ADS-B
Mon 05:03:15 AM 51.7103 -2.6762 102° East 501 577 35,000 -1,667 Level FlightAware ADS-B
Mon 05:03:37 AM 51.6947 -2.6451 102° East 488 562 33,500  Descending FlightAware UK
Mon 05:03:48 AM 51.6942 -2.5559 102° East 500 575 35,000  Climbing FlightAware ADS-B
Mon 05:04:13 AM 51.6769 -2.5136 102° East 486 559 33,500  Descending FlightAware UK
Mon 05:04:19 AM 51.6789 -2.4445 102° East 499 574 35,000 2,368 Climbing FlightAware ADS-B
Mon 05:04:51 AM 51.6630 -2.3278 102° East 500 575 35,000 -1,667 Level FlightAware ADS-B
Mon 05:05:13 AM 51.6469 -2.2951 102° East 494 568 33,500  Descending FlightAware UK
Mon 05:05:22 AM 51.6478 -2.2177 102° East 497 572 35,000 2,308 Climbing FlightAware ADS-B
Mon 05:05:52 AM 51.6329 -2.1097 102° East 494 568 35,000  Level FlightAware ADS-B
Mon 05:06:25 AM 51.6168 -1.9930 102° East 493 567 35,000  Level FlightAware ADS-B
Mon 05:06:57 AM 51.6005 -1.8766 103° East 491 565 35,000 -1,636 Level FlightAware ADS-B
Mon 05:07:20 AM 51.5839 -1.8428 103° East 490 564 33,500  Descending FlightAware UK
Mon 05:07:30 AM 51.5839 -1.7612 103° East 490 564 35,000 2,195 Climbing FlightAware ADS-B
Mon 05:08:01 AM 51.5679 -1.6499 103° East 490 564 35,000  Level FlightAware ADS-B
Mon 05:08:32 AM 51.5518 -1.5413 103° East 488 562 35,000  Level FlightAware ADS-B
Mon 05:09:03 AM 51.5357 -1.4322 103° East 488 562 35,000 -1,667 Level FlightAware ADS-B
Mon 05:09:26 AM 51.5185 -1.3948 103° East 486 559 33,500  Descending FlightAware UK
Mon 05:09:34 AM 51.5191 -1.3216 103° East 488 562 35,000 2,308 Climbing FlightAware ADS-B
Mon 05:10:05 AM 51.5031 -1.2154 104° East 488 562 35,000  Level FlightAware ADS-B
Mon 05:10:35 AM 51.4875 -1.1095 103° East 488 562 35,000 -2,000 Level FlightAware ADS-B
Mon 05:10:50 AM 51.4756 -1.0973 103° East 484 557 33,500  Descending FlightAware UK
Mon 05:11:06 AM 51.4740 -0.9995 103° East 490 564 35,000  Climbing FlightAware ADS-B
Mon 05:11:26 AM 51.4602 -0.9686 103° East 490 564 33,500  Descending FlightAware UK
Mon 05:11:40 AM 51.4592 -0.8777 103° East 490 564 35,000  Climbing FlightAware ADS-B
Mon 05:12:02 AM 51.4444 -0.8393 103° East 488 562 33,500  Descending FlightAware UK
Mon 05:12:15 AM 51.4437 -0.7535 103° East 488 562 35,000  Climbing FlightAware ADS-B
Mon 05:12:33 AM 51.4310 -0.7319 103° East 486 559 33,500  Descending FlightAware UK
Mon 05:12:46 AM 51.4298 -0.6449 103° East 488 562 35,000  Climbing FlightAware ADS-B
Mon 05:13:09 AM 51.4144 -0.6042 103° East 486 559 33,500  Descending FlightAware UK
Mon 05:13:16 AM 51.4160 -0.5374 103° East 489 563 35,000  Climbing FlightAware ADS-B
Mon 05:13:39 AM 51.4007 -0.4958 103° East 486 559 33,500  Descending FlightAware UK
Mon 05:13:46 AM 51.4025 -0.4297 103° East 490 564 35,000 2,368 Climbing FlightAware ADS-B
Mon 05:14:17 AM 51.3893 -0.3226 101° East 490 564 35,000  Level FlightAware ADS-B
Mon 05:14:48 AM 51.3750 -0.2103 101° East 491 565 35,000 -1,957 Level FlightAware ADS-B
Mon 05:15:03 AM 51.3636 -0.1964 101° East 490 564 33,500  Descending FlightAware UK
Mon 05:15:20 AM 51.3605 -0.0964 101° East 490 564 35,000  Climbing FlightAware ADS-B
Mon 05:15:39 AM 51.3470 -0.0673 101° East 490 564 33,500  Descending FlightAware UK
Mon 05:15:51 AM 51.3464 0.0116 101° East 490 564 35,000  Climbing FlightAware ADS-B
Mon 05:16:09 AM 51.3330 0.0396 101° East 490 564 33,500  Descending FlightAware UK
Mon 05:16:23 AM 51.3311 0.1254 101° East 490 564 35,000 2,000 Climbing FlightAware ADS-B
Mon 05:16:54 AM 51.3182 0.2342 101° East 490 564 35,000 -1,957 Level FlightAware ADS-B
Mon 05:17:09 AM 51.3070 0.2546 101° East 490 564 33,500  Descending FlightAware UK
Mon 05:17:38 AM 51.2990 0.3919 101° East 488 562 35,000 1,429 Climbing FlightAware ADS-B
Mon 05:18:12 AM 51.2839 0.5122 101° East 489 563 35,000 -1,837 Level FlightAware ADS-B
Mon 05:18:27 AM 51.2724 0.5328 101° East 490 564 33,500  Descending FlightAware UK
Mon 05:18:43 AM 51.2698 0.6213 101° East 489 563 35,000 1,915 Climbing FlightAware ADS-B
Mon 05:19:14 AM 51.2558 0.7296 102° East 488 562 35,000  Level FlightAware ADS-B
Mon 05:19:45 AM 51.2411 0.8408 102° East 488 562 35,000 -1,800 Level FlightAware ADS-B
Mon 05:20:04 AM 51.2281 0.8742 102° East 498 573 33,500  Descending FlightAware UK
Mon 05:20:21 AM 51.2248 0.9645 102° East 487 560 35,000  Climbing FlightAware ADS-B
Mon 05:20:46 AM 51.2086 1.0227 102° East 492 566 33,500 -2,093 Descending FlightAware UK
Mon 05:21:04 AM 51.2001 1.0867 102° East 490 564 33,500 3,462 Level FlightAware UK
Mon 05:21:12 AM 51.2020 1.1380 102° East 484 557 35,000  Climbing FlightAware ADS-B
Mon 05:21:34 AM 51.1863 1.1919 102° East 488 562 33,500  Descending FlightAware UK
Mon 05:21:52 AM 51.1840 1.2720 102° East 484 557 35,000  Climbing FlightAware ADS-B
Mon 05:22:28 AM 51.1611 1.3820 102° East 492 566 33,500  Descending FlightAware UK
Mon 05:22:37 AM 51.1630 1.4300 102° East 484 557 35,000  Climbing FlightAware ADS-B
Mon 05:22:52 AM 51.1499 1.4662 102° East 492 566 33,500  Descending FlightAware UK
Mon 05:23:17 AM 51.1450 1.5640 102° East 484 557 35,000  Climbing FlightAware ADS-B
Mon 05:23:34 AM 51.1302 1.6135 102° East 494 568 33,500 -2,743 Descending FlightAware UK
Mon 05:23:52 AM 51.1216 1.6771 102° East 488 562 33,400 5,000 Descending FlightAware UK
Mon 05:23:52 AM 51.1280 1.6860 102° East 483 556 35,000 250 Climbing FlightAware ADS-B
Mon 05:24:16 AM 51.1103 1.7610 102° East 486 559 33,500  Descending FlightAware UK
Mon 05:24:42 AM 51.1030 1.8650 102° East 484 557 35,000  Climbing FlightAware ADS-B
Mon 05:25:04 AM 51.0873 1.9286 102° East 492 566 33,500  Descending FlightAware UK
Mon 05:25:22 AM 51.0850 1.9970 102° East 484 557 35,000 2,000 Climbing FlightAware ADS-B
Mon 05:25:49 AM 51.0693 2.1076 103° East 485 558 35,000 -2,143 Level FlightAware ADS-B
Mon 05:26:04 AM 51.0576 2.1391 103° East 492 566 33,500  Descending FlightAware UK
Mon 05:26:24 AM 51.0522 2.2295 103° East 485 558 35,000  Climbing FlightAware ADS-B
Mon 05:26:40 AM 51.0401 2.2651 103° East 496 571 33,500  Descending FlightAware UK
Mon 05:27:02 AM 51.0360 2.3430 103° East 484 557 35,000 2,308 Climbing FlightAware ADS-B
Mon 05:27:19 AM 51.0254 2.4190 102° East 483 556 35,000 -2,727 Level FlightAware ADS-B
Mon 05:27:35 AM 51.0138 2.4541 102° East 496 571 33,500  Descending FlightAware UK
Mon 05:27:58 AM 51.0064 2.5519 102° East 482 555 35,000  Climbing FlightAware ADS-B
Mon 05:28:17 AM 50.9929 2.5997 102° East 494 568 33,500 -2,432 Descending FlightAware UK
Mon 05:28:35 AM 50.9839 2.6618 103° East 498 573 33,500 2,000 Level FlightAware UK
Mon 05:29:02 AM 50.9760 2.7560 103° East 478 550 35,000  Climbing FlightAware ADS-B
Mon 05:29:35 AM 50.9538 2.8676 103° East 496 571 33,500  Descending FlightAware UK
Mon 05:29:52 AM 50.9500 2.9310 103° East 475 547 35,000 1,579 Climbing FlightAware ADS-B
Mon 05:30:32 AM 50.9290 3.0730 103° East 473 544 35,000 -1,636 Level FlightAware ADS-B
Mon 05:30:47 AM 50.9170 3.1117 103° East 492 566 33,500 -2,727 Descending FlightAware UK
Mon 05:31:05 AM 50.9078 3.1724 104° East 490 564 33,500 3,600 Level FlightAware UK
Mon 05:31:12 AM 50.9090 3.2070 104° East 471 542 35,000  Climbing FlightAware ADS-B
Mon 05:31:35 AM 50.8926 3.2743 104° East 490 564 33,500  Descending FlightAware UK
Mon 05:31:57 AM 50.8890 3.3410 104° East 471 542 35,000 1,579 Climbing FlightAware ADS-B
Mon 05:32:32 AM 50.8690 3.4710 104° East 471 542 35,000 -1,324 Level FlightAware ADS-B
Mon 05:33:05 AM 50.8476 3.5775 104° East 490 564 33,500  Descending FlightAware UK
Mon 05:33:32 AM 50.8390 3.6710 104° East 469 540 35,000  Climbing FlightAware ADS-B
Mon 05:33:47 AM 50.8263 3.7183 104° East 490 564 33,500  Descending FlightAware UK
Mon 05:34:12 AM 50.8190 3.8000 104° East 470 541 35,000  Climbing FlightAware ADS-B
Mon 05:34:29 AM 50.8049 3.8588 104° East 492 566 33,500  Descending FlightAware UK
Mon 05:34:57 AM 50.7950 3.9560 104° East 468 539 35,000 1,233 Climbing FlightAware ADS-B
Mon 05:35:42 AM 50.7710 4.1050 104° East 466 536 35,000 -1,324 Level FlightAware ADS-B
Mon 05:36:05 AM 50.7546 4.1780 104° East 492 566 33,500  Descending FlightAware UK
Mon 05:36:22 AM 50.7510 4.2350 104° East 465 535 35,000  Climbing FlightAware ADS-B
Mon 05:36:41 AM 50.7356 4.2975 104° East 492 566 33,500  Descending FlightAware UK
Mon 05:37:02 AM 50.7290 4.3660 104° East 462 532 35,000  Climbing FlightAware ADS-B
Mon 05:37:17 AM 50.7173 4.4168 104° East 492 566 33,500  Descending FlightAware UK
Mon 05:37:47 AM 50.7060 4.5100 104° East 461 531 35,000 1,385 Climbing FlightAware ADS-B
Mon 05:38:22 AM 50.6880 4.6220 104° East 460 529 35,000  Level FlightAware ADS-B
Mon 05:39:12 AM 50.6610 4.7890 104° East 459 528 35,000  Level FlightAware ADS-B
Mon 05:39:52 AM 50.6410 4.9060 105° East 459 528 35,000  Level FlightAware ADS-B
Mon 05:40:37 AM 50.6170 5.0540 104° East 460 529 35,000  Level FlightAware ADS-B
Mon 05:41:17 AM 50.5930 5.1950 105° East 461 531 35,000  Level FlightAware ADS-B
Mon 05:41:57 AM 50.5730 5.3140 105° East 461 531 35,000  Level FlightAware ADS-B
Mon 05:42:42 AM 50.5460 5.4690 105° East 462 532 35,000  Level FlightAware ADS-B
Mon 05:43:22 AM 50.5240 5.6010 105° East 463 533 35,000  Level FlightAware ADS-B
Mon 05:44:02 AM 50.5050 5.7300 103° East 464 534 35,000  Level FlightAware ADS-B
Mon 05:44:47 AM 50.4850 5.8840 101° East 465 535 35,000  Level FlightAware ADS-B
Mon 05:45:27 AM 50.4530 6.0090 112° Southeast 460 529 35,000  Level FlightAware ADS-B
Mon 05:46:12 AM 50.4010 6.1160 127° Southeast 459 528 35,000  Level FlightAware ADS-B
Mon 05:46:47 AM 50.3500 6.2100 130° Southeast 457 526 35,000  Level FlightAware ADS-B
Mon 05:47:32 AM 50.2870 6.3280 130° Southeast 457 526 35,000  Level FlightAware ADS-B
Mon 05:48:22 AM 50.2200 6.4540 130° Southeast 457 526 35,000  Level FlightAware ADS-B
Mon 05:48:57 AM 50.1740 6.5400 130° Southeast 458 527 35,000  Level FlightAware ADS-B
Mon 05:49:42 AM 50.1150 6.6490 130° Southeast 459 528 35,000  Level FlightAware ADS-B
Mon 05:50:22 AM 50.0560 6.7590 130° Southeast 459 528 35,000  Level FlightAware ADS-B
Mon 05:51:02 AM 50.0060 6.8500 131° Southeast 455 524 35,000  Level FlightAware ADS-B
Mon 05:51:47 AM 49.9460 6.9600 130° Southeast 456 525 35,000  Level FlightAware ADS-B
Mon 05:52:27 AM 49.8910 7.0610 130° Southeast 457 526 35,000  Level FlightAware ADS-B
Mon 05:53:12 AM 49.8240 7.1810 131° Southeast 464 534 35,000  Level FlightAware ADS-B
Mon 05:53:52 AM 49.7690 7.2800 131° Southeast 465 535 35,000  Level FlightAware ADS-B
Mon 05:54:32 AM 49.7110 7.3850 130° Southeast 466 536 35,000  Level FlightAware ADS-B
Mon 05:55:17 AM 49.6480 7.4970 131° Southeast 467 537 35,000  Level FlightAware ADS-B
Mon 05:55:57 AM 49.5910 7.5980 131° Southeast 462 532 35,000  Level FlightAware ADS-B
Mon 05:56:42 AM 49.5230 7.7040 135° Southeast 461 531 35,000  Level FlightAware ADS-B
Mon 05:57:22 AM 49.4650 7.7910 136° Southeast 467 537 35,000  Level FlightAware ADS-B
Mon 05:58:02 AM 49.3970 7.8880 137° Southeast 467 537 35,000  Level FlightAware ADS-B
Mon 05:58:47 AM 49.3280 7.9880 137° Southeast 466 536 35,000  Level FlightAware ADS-B
Mon 05:59:27 AM 49.2640 8.0790 137° Southeast 467 537 35,000  Level FlightAware ADS-B
Mon 06:00:32 AM 49.1610 8.2260 137° Southeast 467 537 35,000  Level FlightAware ADS-B
Mon 06:01:17 AM 49.0910 8.3250 137° Southeast 462 532 35,000  Level FlightAware ADS-B
Mon 06:02:02 AM 49.0210 8.4250 137° Southeast 469 540 35,000  Level FlightAware ADS-B
Mon 06:02:42 AM 48.9580 8.5140 137° Southeast 468 539 35,000  Level FlightAware ADS-B
Mon 06:03:27 AM 48.8850 8.6180 137° Southeast 469 540 35,000  Level FlightAware ADS-B
Mon 06:04:07 AM 48.8210 8.7100 137° Southeast 469 540 35,000  Level FlightAware ADS-B
Mon 06:04:47 AM 48.7580 8.7990 137° Southeast 464 534 35,000  Level FlightAware ADS-B
Mon 06:05:27 AM 48.6940 8.8880 137° Southeast 464 534 35,000  Level FlightAware ADS-B
Mon 06:06:12 AM 48.6220 8.9870 138° Southeast 470 541 35,000  Level FlightAware ADS-B
Mon 06:06:57 AM 48.5450 9.0820 141° Southeast 470 541 35,000  Level FlightAware ADS-B
Mon 06:07:37 AM 48.4780 9.1620 142° Southeast 471 542 35,000  Level FlightAware ADS-B
Mon 06:08:17 AM 48.4080 9.2420 143° Southeast 465 535 35,000  Level FlightAware ADS-B
Mon 06:09:02 AM 48.3300 9.3310 143° Southeast 465 535 35,000  Level FlightAware ADS-B
Mon 06:09:42 AM 48.2640 9.4060 143° Southeast 470 541 35,000  Level FlightAware ADS-B
Mon 06:10:27 AM 48.1890 9.4920 143° Southeast 469 540 35,000  Level FlightAware ADS-B
Mon 06:11:02 AM 48.1270 9.5630 143° Southeast 469 540 35,000  Level FlightAware ADS-B
Mon 06:11:42 AM 48.0570 9.6430 143° Southeast 469 540 35,000  Level FlightAware ADS-B
Mon 06:12:32 AM 47.9710 9.7400 143° Southeast 467 537 35,000  Level FlightAware ADS-B
Mon 06:13:12 AM 47.9000 9.8200 143° Southeast 468 539 35,000  Level FlightAware ADS-B
Mon 06:13:57 AM 47.8210 9.9090 143° Southeast 468 539 35,000  Level FlightAware ADS-B
Mon 06:14:37 AM 47.7520 9.9860 143° Southeast 469 540 35,000  Level FlightAware ADS-B
Mon 06:15:17 AM 47.6840 10.0620 143° Southeast 463 533 35,000  Level FlightAware ADS-B
Mon 06:16:02 AM 47.6030 10.1530 143° Southeast 465 535 35,000  Level FlightAware ADS-B
Mon 06:18:00 AM 47.4630 10.4992 121° Southeast  Level Estimated
Mon 06:19:00 AM 47.3914 10.6745 121° Southeast  Level Estimated
Mon 06:19:17 AM 47.2750 10.5100 121° Southeast 460 529 35,000  Level FlightAware ADS-B
Mon 06:19:57 AM 47.1950 10.5960 144° Southeast 459 528 35,000  Level FlightAware ADS-B
Mon 06:20:42 AM 47.1190 10.6770 144° Southeast 463 533 35,000  Level FlightAware ADS-B
Mon 06:21:17 AM 47.0630 10.7360 144° Southeast 472 543 35,000  Level FlightAware ADS-B
Mon 06:22:02 AM 46.9770 10.8270 144° Southeast 474 545 35,000  Level FlightAware ADS-B
Mon 06:22:47 AM 46.9010 10.9070 144° Southeast 474 545 35,000  Level FlightAware ADS-B
Mon 06:23:27 AM 46.8220 10.9900 144° Southeast 473 544 35,000  Level FlightAware ADS-B
Mon 06:24:12 AM 46.7420 11.0730 145° Southeast 472 543 35,000  Level FlightAware ADS-B
Mon 06:25:07 AM 46.6440 11.1750 144° Southeast 469 540 35,000  Level FlightAware ADS-B
Mon 06:25:47 AM 46.5740 11.2470 145° Southeast 458 527 35,000  Level FlightAware ADS-B
Mon 06:26:32 AM 46.5040 11.3200 144° Southeast 456 525 35,000  Level FlightAware ADS-B
Mon 06:27:12 AM 46.4260 11.4000 145° Southeast 455 524 35,000  Level FlightAware ADS-B
Mon 06:27:47 AM 46.3720 11.4560 144° Southeast 455 524 35,000  Level FlightAware ADS-B
Mon 06:28:37 AM 46.2840 11.5430 146° Southeast 451 519 35,000  Level FlightAware ADS-B
Mon 06:29:17 AM 46.2230 11.6290 136° Southeast 456 525 35,000  Level FlightAware ADS-B
Mon 06:29:57 AM 46.1720 11.7270 127° Southeast 459 528 35,000  Level FlightAware ADS-B
Mon 06:30:42 AM 46.1130 11.8360 128° Southeast 464 534 35,000  Level FlightAware ADS-B
Mon 06:31:22 AM 46.0640 11.9220 129° Southeast 464 534 35,000  Level FlightAware ADS-B
Mon 06:32:02 AM 46.0090 12.0180 129° Southeast 465 535 35,000  Level FlightAware ADS-B
Mon 06:32:42 AM 45.9500 12.1240 129° Southeast 465 535 35,000  Level FlightAware ADS-B
Mon 06:33:42 AM 45.8690 12.2670 129° Southeast 462 532 35,000  Level FlightAware ADS-B
Mon 06:34:27 AM 45.8110 12.3790 127° Southeast 463 533 35,000  Level FlightAware ADS-B
Mon 06:35:07 AM 45.7660 12.4670 126° Southeast 458 527 35,000  Level FlightAware ADS-B
Mon 06:35:52 AM 45.7050 12.5900 125° Southeast 459 528 35,000  Level FlightAware ADS-B
Mon 06:36:32 AM 45.6550 12.6910 125° Southeast 461 531 35,000  Level FlightAware ADS-B
Mon 06:37:07 AM 45.6130 12.7760 125° Southeast 467 537 35,000  Level FlightAware ADS-B
Mon 06:37:57 AM 45.5490 12.9030 126° Southeast 465 535 35,000  Level FlightAware ADS-B
Mon 06:38:37 AM 45.4990 13.0020 126° Southeast 464 534 35,000  Level FlightAware ADS-B
Mon 06:39:17 AM 45.4490 13.1020 125° Southeast 458 527 35,000  Level FlightAware ADS-B
Mon 06:40:02 AM 45.3950 13.2090 126° Southeast 459 528 35,000  Level FlightAware ADS-B
Mon 06:40:42 AM 45.3420 13.3100 127° Southeast 458 527 35,000  Level FlightAware ADS-B
Mon 06:41:27 AM 45.2860 13.4180 126° Southeast 451 519 35,000  Level FlightAware ADS-B
Mon 06:42:37 AM 45.2050 13.5760 126° Southeast 456 525 35,000  Level FlightAware ADS-B
Mon 06:43:32 AM 45.1310 13.7190 126° Southeast 447 514 35,000  Level FlightAware ADS-B
Mon 06:44:12 AM 45.0840 13.8150 125° Southeast 456 525 35,000  Level FlightAware ADS-B
Mon 06:44:57 AM 45.0480 13.9430 112° Southeast 459 528 35,000  Level FlightAware ADS-B
Mon 06:45:32 AM 45.0180 14.0380 114° Southeast 454 522 35,000  Level FlightAware ADS-B
Mon 06:46:12 AM 44.9790 14.1450 117° Southeast 458 527 35,000  Level FlightAware ADS-B
Mon 06:47:02 AM 44.9310 14.2620 120° Southeast 458 527 35,000  Level FlightAware ADS-B
Mon 06:47:42 AM 44.8900 14.3550 122° Southeast 457 526 35,000  Level FlightAware ADS-B
Mon 06:48:27 AM 44.8420 14.4670 121° Southeast 459 528 35,000  Level FlightAware ADS-B
Mon 06:49:07 AM 44.7880 14.5920 121° Southeast 462 532 35,000  Level FlightAware ADS-B
Mon 06:49:47 AM 44.7460 14.6840 123° Southeast 456 525 35,000  Level FlightAware ADS-B
Mon 06:50:47 AM 44.6600 14.8400 128° Southeast 454 522 35,000  Level FlightAware ADS-B
Mon 06:51:27 AM 44.6070 14.9320 129° Southeast 459 528 35,000  Level FlightAware ADS-B
Mon 06:52:12 AM 44.5470 15.0350 129° Southeast 458 527 35,000  Level FlightAware ADS-B
Mon 06:52:52 AM 44.4930 15.1270 129° Southeast 459 528 35,000  Level FlightAware ADS-B
Mon 06:53:32 AM 44.4420 15.2140 129° Southeast 460 529 35,000  Level FlightAware ADS-B
Mon 06:54:17 AM 44.3810 15.3200 129° Southeast 462 532 35,000  Level FlightAware ADS-B
Mon 06:54:57 AM 44.3250 15.4150 129° Southeast 461 531 35,000  Level FlightAware ADS-B
Mon 06:55:37 AM 44.2720 15.5060 129° Southeast 461 531 35,000  Level FlightAware ADS-B
Mon 06:56:22 AM 44.2090 15.6130 129° Southeast 459 528 35,000  Level FlightAware ADS-B
Mon 06:57:02 AM 44.1550 15.7040 130° Southeast 458 527 35,000  Level FlightAware ADS-B
Mon 06:57:47 AM 44.0960 15.8050 129° Southeast 456 525 35,000  Level FlightAware ADS-B
Mon 06:58:27 AM 44.0410 15.8960 130° Southeast 457 526 35,000  Level FlightAware ADS-B
Mon 06:59:07 AM 43.9880 15.9850 130° Southeast 457 526 35,000  Level FlightAware ADS-B
Mon 06:59:52 AM 43.9290 16.0820 130° Southeast 457 526 35,000  Level FlightAware ADS-B
Mon 07:00:32 AM 43.8710 16.1780 130° Southeast 456 525 35,000  Level FlightAware ADS-B
Mon 07:01:17 AM 43.8110 16.2790 129° Southeast 455 524 35,000  Level FlightAware ADS-B
Mon 07:01:57 AM 43.7610 16.3610 130° Southeast 454 522 35,000  Level FlightAware ADS-B
Mon 07:02:42 AM 43.6970 16.4670 130° Southeast 453 521 35,000  Level FlightAware ADS-B
Mon 07:03:22 AM 43.6420 16.5570 130° Southeast 454 522 35,000  Level FlightAware ADS-B
Mon 07:04:02 AM 43.5890 16.6440 130° Southeast 455 524 35,000  Level FlightAware ADS-B
Mon 07:04:47 AM 43.5280 16.7430 130° Southeast 455 524 35,000  Level FlightAware ADS-B
Mon 07:05:27 AM 43.4730 16.8340 130° Southeast 454 522 35,000  Level FlightAware ADS-B
Mon 07:06:12 AM 43.4130 16.9320 130° Southeast 451 519 35,000  Level FlightAware ADS-B
Mon 07:06:52 AM 43.3610 17.0150 131° Southeast 449 517 35,000  Level FlightAware ADS-B
Mon 07:07:37 AM 43.2970 17.1180 130° Southeast 449 517 35,000  Level FlightAware ADS-B
Mon 07:08:17 AM 43.2430 17.2040 131° Southeast 450 518 35,000  Level FlightAware ADS-B
Mon 07:09:02 AM 43.1820 17.3030 130° Southeast 452 520 35,000  Level FlightAware ADS-B
Mon 07:09:42 AM 43.1280 17.3890 131° Southeast 451 519 35,000  Level FlightAware ADS-B
Mon 07:10:22 AM 43.0760 17.4730 130° Southeast 454 522 35,000  Level FlightAware ADS-B
Mon 07:11:07 AM 43.0150 17.5720 130° Southeast 458 527 35,000  Level FlightAware ADS-B
Mon 07:11:47 AM 42.9540 17.6670 131° Southeast 465 535 35,000  Level FlightAware ADS-B
Mon 07:12:32 AM 42.8920 17.7660 131° Southeast 470 541 35,000  Level FlightAware ADS-B
Mon 07:13:12 AM 42.8370 17.8530 131° Southeast 473 544 35,000  Level FlightAware ADS-B
Mon 07:13:52 AM 42.7770 17.9470 131° Southeast 471 542 35,000  Level FlightAware ADS-B
Mon 07:14:27 AM 42.7260 18.0280 131° Southeast 472 543 35,000  Level FlightAware ADS-B
Mon 07:15:17 AM 42.6510 18.1440 131° Southeast 477 549 35,000  Level FlightAware ADS-B
Mon 07:15:57 AM 42.5930 18.2350 131° Southeast 479 551 35,000  Level FlightAware ADS-B
Mon 07:16:42 AM 42.5280 18.3300 133° Southeast 476 548 35,000  Level FlightAware ADS-B
Mon 07:17:22 AM 42.4660 18.4140 135° Southeast 475 547 35,000  Level FlightAware ADS-B
Mon 07:18:07 AM 42.3930 18.5130 135° Southeast 473 544 35,000  Level FlightAware ADS-B
Mon 07:18:47 AM 42.3320 18.5950 135° Southeast 472 543 35,000  Level FlightAware ADS-B
Mon 07:19:27 AM 42.2700 18.6780 135° Southeast 470 541 35,000  Level FlightAware ADS-B
Mon 07:20:12 AM 42.2060 18.7630 135° Southeast 469 540 35,000  Level FlightAware ADS-B
Mon 07:20:52 AM 42.1410 18.8500 135° Southeast 468 539 35,000  Level FlightAware ADS-B
Mon 07:21:32 AM 42.0790 18.9330 135° Southeast 468 539 35,000  Level FlightAware ADS-B
Mon 07:22:17 AM 42.0070 19.0270 136° Southeast 466 536 35,000  Level FlightAware ADS-B
Mon 07:22:57 AM 41.9450 19.1090 135° Southeast 465 535 35,000  Level FlightAware ADS-B
Mon 07:23:42 AM 41.8800 19.1950 135° Southeast 463 533 35,000  Level FlightAware ADS-B
Mon 07:24:22 AM 41.8300 19.2600 136° Southeast 463 533 35,000  Level FlightAware ADS-B
Mon 07:25:07 AM 41.7450 19.3670 137° Southeast 464 534 35,000  Level FlightAware ADS-B
Mon 07:25:47 AM 41.6830 19.4480 136° Southeast 465 535 35,000  Level FlightAware ADS-B
Mon 07:26:22 AM 41.6310 19.5160 136° Southeast 465 535 35,000  Level FlightAware ADS-B
Mon 07:27:12 AM 41.5540 19.6150 136° Southeast 463 533 35,000  Level FlightAware ADS-B
Mon 07:27:52 AM 41.4910 19.6950 136° Southeast 462 532 35,000  Level FlightAware ADS-B
Mon 07:28:37 AM 41.4200 19.7850 136° Southeast 463 533 35,000  Level FlightAware ADS-B
Mon 07:29:17 AM 41.3570 19.8640 137° Southeast 463 533 35,000  Level FlightAware ADS-B
Mon 07:29:57 AM 41.2960 19.9420 136° Southeast 465 535 35,000  Level FlightAware ADS-B
Mon 07:30:42 AM 41.2260 20.0290 137° Southeast 471 542 35,000  Level FlightAware ADS-B
Mon 07:31:22 AM 41.1620 20.1090 137° Southeast 474 545 35,000  Level FlightAware ADS-B
Mon 07:32:07 AM 41.0890 20.2010 136° Southeast 473 544 35,000  Level FlightAware ADS-B
Mon 07:32:47 AM 41.0250 20.2800 137° Southeast 473 544 35,000  Level FlightAware ADS-B
Mon 07:33:27 AM 40.9620 20.3590 137° Southeast 466 536 35,000  Level FlightAware ADS-B
Mon 07:34:12 AM 40.8930 20.4440 137° Southeast 457 526 35,000  Level FlightAware ADS-B
Mon 07:34:52 AM 40.8310 20.5210 137° Southeast 449 517 35,000  Level FlightAware ADS-B
Mon 07:35:37 AM 40.7630 20.6050 137° Southeast 450 518 35,000  Level FlightAware ADS-B
Mon 07:36:27 AM 40.7080 20.6720 137° Southeast 458 527 35,000  Level FlightAware ADS-B
Mon 07:37:07 AM 40.6450 20.7500 137° Southeast 462 532 35,000  Level FlightAware ADS-B
Mon 07:37:52 AM 40.5710 20.8400 137° Southeast 462 532 35,000  Level FlightAware ADS-B
Mon 07:38:32 AM 40.5200 20.9310 126° Southeast 472 543 35,000  Level FlightAware ADS-B
Mon 07:39:32 AM 40.4670 21.0610 118° Southeast 477 549 35,000  Level FlightAware ADS-B
Mon 07:40:17 AM 40.3980 21.2310 118° Southeast 487 560 35,000  Level FlightAware ADS-B
Mon 07:40:57 AM 40.3480 21.3220 126° Southeast 484 557 35,000  Level FlightAware ADS-B
Mon 07:41:37 AM 40.2790 21.4080 136° Southeast 479 551 35,000  Level FlightAware ADS-B
Mon 07:42:37 AM 40.1900 21.5170 137° Southeast 485 558 35,000  Level FlightAware ADS-B
Mon 07:43:17 AM 40.1210 21.6150 133° Southeast 492 566 35,000  Level FlightAware ADS-B
Mon 07:43:57 AM 40.0650 21.7010 130° Southeast 494 568 35,000 120 Level FlightAware ADS-B
Mon 07:44:57 AM 39.9770 21.8470 128° Southeast 499 574 35,200 600 Climbing FlightAware ADS-B
Mon 07:45:37 AM 39.9200 21.9440 127° Southeast 499 574 36,000 1,275 Climbing FlightAware ADS-B
Mon 07:46:17 AM 39.8640 22.0420 127° Southeast 496 571 36,900 706 Climbing FlightAware ADS-B
Mon 07:47:02 AM 39.8050 22.1440 127° Southeast 497 572 37,000 71 Climbing FlightAware ADS-B
Mon 07:47:42 AM 39.7480 22.2400 128° Southeast 496 571 37,000  Level FlightAware ADS-B
Mon 07:48:27 AM 39.6840 22.3490 127° Southeast 494 568 37,000  Level FlightAware ADS-B
Mon 07:49:07 AM 39.6300 22.4430 127° Southeast 493 567 37,000  Level FlightAware ADS-B
Mon 07:49:47 AM 39.5730 22.5380 128° Southeast 495 570 37,000  Level FlightAware ADS-B
Mon 07:50:32 AM 39.5120 22.6410 127° Southeast 497 572 37,000  Level FlightAware ADS-B
Mon 07:51:12 AM 39.4550 22.7370 128° Southeast 499 574 37,000  Level FlightAware ADS-B
Mon 07:51:57 AM 39.3890 22.8460 128° Southeast 502 578 37,000  Level FlightAware ADS-B
Mon 07:52:37 AM 39.3330 22.9410 127° Southeast 502 578 37,000  Level FlightAware ADS-B
Mon 07:53:22 AM 39.2700 23.0450 128° Southeast 503 579 37,000  Level FlightAware ADS-B
Mon 07:54:02 AM 39.2130 23.1390 128° Southeast 503 579 37,000  Level FlightAware ADS-B
Mon 07:54:42 AM 39.1560 23.2350 127° Southeast 503 579 37,000  Level FlightAware ADS-B
Mon 07:55:27 AM 39.0900 23.3430 128° Southeast 502 578 37,000  Level FlightAware ADS-B
Mon 07:56:07 AM 39.0330 23.4360 128° Southeast 501 577 37,000  Level FlightAware ADS-B
Mon 07:56:52 AM 38.9690 23.5400 128° Southeast 501 577 37,000  Level FlightAware ADS-B
Mon 07:57:32 AM 38.9130 23.6320 128° Southeast 502 578 37,000  Level FlightAware ADS-B
Mon 07:58:12 AM 38.8560 23.7260 128° Southeast 502 578 37,000  Level FlightAware ADS-B
Mon 07:58:57 AM 38.7890 23.8350 128° Southeast 504 580 37,000  Level FlightAware ADS-B
Mon 07:59:37 AM 38.7310 23.9280 129° Southeast 504 580 37,000  Level FlightAware ADS-B
Mon 08:00:17 AM 38.6740 24.0210 128° Southeast 504 580 37,000  Level FlightAware ADS-B
Mon 08:01:02 AM 38.6090 24.1250 129° Southeast 504 580 37,000  Level FlightAware ADS-B
Mon 08:01:47 AM 38.5430 24.2320 128° Southeast 504 580 37,000  Level FlightAware ADS-B
Mon 08:02:27 AM 38.4850 24.3260 128° Southeast 503 579 37,000  Level FlightAware ADS-B
Mon 08:03:07 AM 38.4280 24.4170 129° Southeast 504 580 37,000  Level FlightAware ADS-B
Mon 08:03:47 AM 38.3680 24.5120 129° Southeast 503 579 37,000  Level FlightAware ADS-B
Mon 08:04:32 AM 38.3040 24.6130 129° Southeast 503 579 37,000  Level FlightAware ADS-B
Mon 08:05:17 AM 38.2370 24.7200 129° Southeast 503 579 37,000  Level FlightAware ADS-B
Mon 08:05:57 AM 38.1780 24.8130 129° Southeast 504 580 37,000  Level FlightAware ADS-B
Mon 08:06:37 AM 38.1190 24.9050 129° Southeast 504 580 37,000  Level FlightAware ADS-B
Mon 08:07:22 AM 38.0560 25.0050 129° Southeast 503 579 37,000  Level FlightAware ADS-B
Mon 08:08:02 AM 37.9980 25.0960 129° Southeast 501 577 37,000  Level FlightAware ADS-B
Mon 08:08:47 AM 37.9300 25.2020 129° Southeast 501 577 37,000  Level FlightAware ADS-B
Mon 08:09:27 AM 37.8710 25.2940 129° Southeast 501 577 37,000  Level FlightAware ADS-B
Mon 08:10:07 AM 37.8130 25.3840 129° Southeast 500 575 37,000  Level FlightAware ADS-B
Mon 08:10:47 AM 37.7550 25.4730 129° Southeast 501 577 37,000  Level FlightAware ADS-B
Mon 08:11:32 AM 37.6890 25.5740 130° Southeast 502 578 37,000  Level FlightAware ADS-B
Mon 08:12:12 AM 37.6300 25.6650 129° Southeast 503 579 37,000  Level FlightAware ADS-B
Mon 08:12:57 AM 37.5630 25.7670 130° Southeast 503 579 37,000  Level FlightAware ADS-B
Mon 08:13:37 AM 37.5030 25.8590 129° Southeast 505 581 37,000  Level FlightAware ADS-B
Mon 08:14:17 AM 37.4440 25.9500 129° Southeast 506 582 37,000  Level FlightAware ADS-B
Mon 08:15:02 AM 37.3770 26.0510 130° Southeast 506 582 37,000  Level FlightAware ADS-B
Mon 08:15:42 AM 37.3160 26.1440 129° Southeast 507 583 37,000  Level FlightAware ADS-B
Mon 08:16:27 AM 37.2500 26.2440 130° Southeast 509 586 37,000  Level FlightAware ADS-B
Mon 08:17:07 AM 37.1890 26.3360 130° Southeast 509 586 37,000  Level FlightAware ADS-B
Mon 08:17:47 AM 37.1290 26.4260 130° Southeast 510 587 37,000  Level FlightAware ADS-B
Mon 08:18:32 AM 37.0620 26.5260 130° Southeast 510 587 37,000  Level FlightAware ADS-B
Mon 08:19:12 AM 36.9990 26.6200 130° Southeast 511 588 37,000  Level FlightAware ADS-B
Mon 08:19:57 AM 36.9370 26.7120 130° Southeast 511 588 37,000  Level FlightAware ADS-B
Mon 08:20:37 AM 36.8700 26.8120 130° Southeast 510 587 37,000  Level FlightAware ADS-B
Mon 08:21:32 AM 36.7930 26.9260 130° Southeast 511 588 37,000  Level FlightAware ADS-B
Mon 08:22:17 AM 36.7180 27.0370 130° Southeast 510 587 37,000  Level FlightAware ADS-B
Mon 08:22:57 AM 36.6610 27.1200 131° Southeast 512 589 37,000  Level FlightAware ADS-B
Mon 08:23:32 AM 36.6060 27.2010 130° Southeast 512 589 37,000  Level FlightAware ADS-B
Mon 08:24:17 AM 36.5340 27.3070 130° Southeast 513 590 37,000  Level FlightAware ADS-B
Mon 08:25:02 AM 36.4670 27.4030 131° Southeast 513 590 37,000  Level FlightAware ADS-B
Mon 08:25:42 AM 36.4040 27.4950 130° Southeast 513 590 37,000  Level FlightAware ADS-B
Mon 08:26:27 AM 36.3450 27.5810 130° Southeast 513 590 37,000  Level FlightAware ADS-B
Mon 08:27:07 AM 36.2720 27.6850 131° Southeast 514 592 37,000  Level FlightAware ADS-B
Mon 08:27:47 AM 36.2200 27.7590 131° Southeast 514 592 37,000  Level FlightAware ADS-B
Mon 08:28:27 AM 36.1670 27.8350 131° Southeast 514 592 37,000  Level FlightAware ADS-B
Mon 08:29:17 AM 36.1010 27.9290 131° Southeast 514 592 37,000  Level FlightAware ADS-B
Mon 08:29:57 AM 36.0480 28.0050 131° Southeast 514 592 37,000  Level FlightAware ADS-B
Mon 08:30:37 AM 35.9500 28.1450 131° Southeast 515 593 37,000  Level FlightAware ADS-B
Mon 08:31:17 AM 35.8930 28.2250 131° Southeast 515 593 37,000  Level FlightAware ADS-B
Mon 08:32:32 AM 35.7670 28.4050 131° Southeast 516 594 37,000  Level FlightAware ADS-B
Mon 08:33:27 AM 35.6860 28.5220 130° Southeast 516 594 37,000  Level FlightAware ADS-B
Mon 08:34:07 AM 35.6340 28.5990 130° Southeast 516 594 37,000  Level FlightAware ADS-B
Mon 08:34:47 AM 35.5820 28.6750 130° Southeast 516 594 37,000  Level FlightAware ADS-B
Mon 08:35:27 AM 35.5290 28.7510 131° Southeast 516 594 37,000  Level FlightAware ADS-B
Mon 08:36:42 AM 35.3750 28.9520 133° Southeast 512 589 37,000  Level FlightAware ADS-B
Mon 08:37:22 AM 35.3130 29.0390 131° Southeast 512 589 37,000  Level FlightAware ADS-B
Mon 08:38:02 AM 35.2510 29.1240 132° Southeast 514 592 37,000  Level FlightAware ADS-B
Mon 08:38:47 AM 35.1750 29.2270 132° Southeast 514 592 37,000  Level FlightAware ADS-B
Mon 08:39:32 AM 35.1080 29.3210 131° Southeast 514 592 37,000  Level FlightAware ADS-B
Mon 08:40:12 AM 35.0470 29.4040 132° Southeast 516 594 37,000  Level FlightAware ADS-B
Mon 08:40:47 AM 34.9820 29.4910 132° Southeast 517 595 37,000  Level FlightAware ADS-B
Mon 08:41:37 AM 34.8970 29.6060 132° Southeast 517 595 37,000  Level FlightAware ADS-B
Mon 08:42:17 AM 34.8310 29.6950 132° Southeast 518 596 37,000  Level FlightAware ADS-B
Mon 08:43:02 AM 34.7590 29.7920 132° Southeast 516 594 37,000  Level FlightAware ADS-B
Mon 08:43:42 AM 34.6940 29.8800 132° Southeast 516 594 37,000  Level FlightAware ADS-B
Mon 08:44:27 AM 34.6310 29.9640 132° Southeast 516 594 37,000  Level FlightAware ADS-B
Mon 08:45:02 AM 34.5790 30.0370 131° Southeast 516 594 37,000  Level FlightAware ADS-B
Mon 08:45:47 AM 34.5160 30.1610 122° Southeast 517 595 37,000  Level FlightAware ADS-B
Mon 08:46:32 AM 34.4650 30.2680 120° Southeast 521 600 37,000  Level FlightAware ADS-B
Mon 08:47:12 AM 34.4120 30.3770 120° Southeast 517 595 37,000  Level FlightAware ADS-B
Mon 08:47:57 AM 34.3570 30.4920 120° Southeast 516 594 37,000  Level FlightAware ADS-B
Mon 08:48:37 AM 34.3070 30.5930 121° Southeast 519 597 37,000  Level FlightAware ADS-B
Mon 08:49:17 AM 34.2590 30.6920 120° Southeast 515 593 37,000  Level FlightAware ADS-B
Mon 08:50:02 AM 34.2040 30.8060 120° Southeast 514 592 37,000  Level FlightAware ADS-B
Mon 08:50:42 AM 34.1530 30.9080 121° Southeast 515 593 37,000  Level FlightAware ADS-B
Mon 08:51:22 AM 34.1040 31.0100 120° Southeast 521 600 37,000  Level FlightAware ADS-B
Mon 08:52:07 AM 34.0510 31.1170 121° Southeast 524 603 37,000  Level FlightAware ADS-B
Mon 08:53:02 AM 33.9850 31.2500 121° Southeast 523 602 37,000  Level FlightAware ADS-B
Mon 08:53:42 AM 33.9340 31.3540 121° Southeast 528 608 37,000  Level FlightAware ADS-B
Mon 08:54:27 AM 33.8750 31.4710 121° Southeast 528 608 37,000  Level FlightAware ADS-B
Mon 08:55:12 AM 33.8200 31.5820 121° Southeast 529 609 37,000  Level FlightAware ADS-B
Mon 08:55:52 AM 33.7690 31.6830 121° Southeast 527 606 37,000  Level FlightAware ADS-B
Mon 08:56:37 AM 33.7130 31.7940 121° Southeast 528 608 37,000  Level FlightAware ADS-B
Mon 08:57:12 AM 33.6680 31.8840 121° Southeast 527 606 37,000  Level FlightAware ADS-B
Mon 08:57:57 AM 33.6100 31.9990 121° Southeast 525 604 37,000  Level FlightAware ADS-B
Mon 08:58:37 AM 33.5610 32.0970 121° Southeast 525 604 37,000  Level FlightAware ADS-B
Mon 08:59:22 AM 33.5030 32.2110 121° Southeast 524 603 37,000  Level FlightAware ADS-B
Mon 09:00:07 AM 33.4440 32.3260 122° Southeast 522 601 37,000 -129 Level FlightAware ADS-B
Mon 09:01:42 AM 33.3320 32.5450 121° Southeast 513 590 36,700 -533 Descending FlightAware ADS-B
Mon 09:02:22 AM 33.2790 32.6480 122° Southeast 503 579 35,800 -1,725 Descending FlightAware ADS-B
Mon 09:03:02 AM 33.2320 32.7410 121° Southeast 498 573 34,400 -2,118 Descending FlightAware ADS-B
Mon 09:03:47 AM 33.1800 32.8410 122° Southeast 491 565 32,800 -2,188 Descending FlightAware ADS-B
Mon 09:04:27 AM 33.1280 32.9410 122° Southeast 482 555 31,300 -2,259 Descending FlightAware ADS-B
Mon 09:05:12 AM 33.0740 33.0460 122° Southeast 473 544 29,600 -2,188 Descending FlightAware ADS-B
Mon 09:05:52 AM 33.0320 33.1270 122° Southeast 466 536 28,200 -2,147 Descending FlightAware ADS-B
Mon 09:06:47 AM 32.9670 33.2520 122° Southeast 461 531 26,200 -2,160 Descending FlightAware ADS-B
Mon 09:07:32 AM 32.9160 33.3510 122° Southeast 459 528 24,600 -2,118 Descending FlightAware ADS-B
Mon 09:08:12 AM 32.8730 33.4330 122° Southeast 443 510 23,200 -2,047 Descending FlightAware ADS-B
Mon 09:08:57 AM 32.8250 33.5250 122° Southeast 428 493 21,700 -1,906 Descending FlightAware ADS-B
Mon 09:09:37 AM 32.7870 33.5990 121° Southeast 418 481 20,500 -1,200 Descending FlightAware ADS-B
Mon 09:10:22 AM 32.7360 33.6970 122° Southeast 427 491 20,000 -1,412 Descending FlightAware ADS-B
Mon 09:11:02 AM 32.6940 33.7770 122° Southeast 418 481 18,500 -2,329 Descending FlightAware ADS-B
Mon 09:11:47 AM 32.6500 33.8600 122° Southeast 411 473 16,700 -2,400 Descending FlightAware ADS-B
Mon 09:12:27 AM 32.6090 33.9380 122° Southeast 402 463 15,100 -2,325 Descending FlightAware ADS-B
Mon 09:13:07 AM 32.5730 34.0070 122° Southeast 393 452 13,600 -1,976 Descending FlightAware ADS-B
Mon 09:13:52 AM 32.5280 34.0930 122° Southeast 367 422 12,300 -1,694 Descending FlightAware ADS-B
Mon 09:14:32 AM 32.4940 34.1580 122° Southeast 350 403 11,200 -1,200 Descending FlightAware ADS-B
Mon 09:15:17 AM 32.4490 34.2240 129° Southeast 318 366 10,600 -635 Descending FlightAware ADS-B
Mon 09:15:57 AM 32.4100 34.2710 134° Southeast 289 333 10,300 -600 Descending FlightAware ADS-B
Mon 09:16:37 AM 32.3730 34.3130 136° Southeast 266 306 9,800 -873 Descending FlightAware ADS-B
Mon 09:16:52 AM 32.3590 34.3290 136° Southeast 266 306 9,500 -1,200 Descending FlightAware ADS-B
Mon 09:17:22 AM 32.3320 34.3610 135° Southeast 276 318 8,900 -1,080 Descending FlightAware ADS-B
Mon 09:17:42 AM 32.3170 34.3780 136° Southeast 280 322 8,600 -327 Descending FlightAware ADS-B
Mon 09:18:17 AM 32.2870 34.4130 135° Southeast 280 322 8,600  Level FlightAware ADS-B
Mon 09:18:47 AM 32.2640 34.4410 134° Southeast 280 322 8,600  Level FlightAware ADS-B
Mon 09:19:07 AM 32.2480 34.4590 136° Southeast 280 322 8,600  Level FlightAware ADS-B
Mon 09:19:27 AM 32.2330 34.4780 133° Southeast 280 322 8,600  Level FlightAware ADS-B
Mon 09:22:00 AM 32.0301 34.8166 125° Southeast  Level FlightAware Approximate
Mon 09:23:00 AM 32.0000 34.8667 125° Southeast  Level FlightAware Approximate
Mon 09:24:00 AM 32.0095 34.8769 125° Southeast  Level Estimated
Mon 09:25:00 AM 32.0095 34.8769 125° Southeast  Level Estimated
Mon 09:26:00 AM 32.0095 34.8769 125° Southeast  Level Estimated
Mon 09:27:00 AM 32.0095 34.8769 125° Southeast  Level Estimated
Mon 09:28:00 AM 32.0095 34.8769 125° Southeast  Level Estimated
Mon 09:29:00 AM 32.0095 34.8769 125° Southeast  Level Estimated
Mon 09:30:00 AM 32.0095 34.8769 125° Southeast  Level Estimated

Login

Don't have an account? Register now (free) for customized features, flight alerts, and more!